<?xml version="1.0" encoding="UTF-8" standalone="no" ?>
<gpx xmlns="http://www.topografix.com/GPX/1/1" xmlns:xsi="http://www.w3.org/2001/XMLSchema-instance" xsi:schemaLocation="http://www.topografix.com/GPX/1/1 http://www.topografix.com/GPX/1/1/gpx.xsd" version="1.1" creator="VisuGPX - https://www.visugpx.com">
  <metadata>
    <name>Saint Barnabé les Courmettes</name>
    <desc><![CDATA[Circuit avec une vue  splendide qui alterne des pistes, des sentiers caillouteux et un peu de poussage]]></desc>
  </metadata>
  <trk>
    <name><![CDATA[ACTIVE LOG 001]]></name>
    <trkseg>
      <trkpt lat="43.75748" lon="7.04578">
        <ele>982.60473632812</ele>
        <time>2012-03-27T11:09:46Z</time>
      </trkpt>
      <trkpt lat="43.75748" lon="7.04578">
        <ele>982.60473632812</ele>
        <time>2012-03-27T11:09:47Z</time>
      </trkpt>
      <trkpt lat="43.75748" lon="7.04578">
        <ele>981.16284179688</ele>
        <time>2012-03-27T11:09:49Z</time>
      </trkpt>
      <trkpt lat="43.7575" lon="7.04569">
        <ele>980.68212890625</ele>
        <time>2012-03-27T11:10:11Z</time>
      </trkpt>
      <trkpt lat="43.75749" lon="7.04564">
        <ele>980.68212890625</ele>
        <time>2012-03-27T11:10:26Z</time>
      </trkpt>
      <trkpt lat="43.75749" lon="7.04561">
        <ele>981.64331054688</ele>
        <time>2012-03-27T11:10:55Z</time>
      </trkpt>
      <trkpt lat="43.75749" lon="7.04561">
        <ele>981.64331054688</ele>
        <time>2012-03-27T11:11:07Z</time>
      </trkpt>
      <trkpt lat="43.7575" lon="7.04549">
        <ele>982.60473632812</ele>
        <time>2012-03-27T11:11:13Z</time>
      </trkpt>
      <trkpt lat="43.75738" lon="7.04543">
        <ele>980.20141601562</ele>
        <time>2012-03-27T11:11:18Z</time>
      </trkpt>
      <trkpt lat="43.75724" lon="7.04546">
        <ele>979.720703125</ele>
        <time>2012-03-27T11:11:22Z</time>
      </trkpt>
      <trkpt lat="43.75697" lon="7.04573">
        <ele>979.720703125</ele>
        <time>2012-03-27T11:11:32Z</time>
      </trkpt>
      <trkpt lat="43.75674" lon="7.04615">
        <ele>979.23999023438</ele>
        <time>2012-03-27T11:11:45Z</time>
      </trkpt>
      <trkpt lat="43.75643" lon="7.04646">
        <ele>975.87548828125</ele>
        <time>2012-03-27T11:11:53Z</time>
      </trkpt>
      <trkpt lat="43.75617" lon="7.0467">
        <ele>975.87548828125</ele>
        <time>2012-03-27T11:12:03Z</time>
      </trkpt>
      <trkpt lat="43.75617" lon="7.0467">
        <ele>976.35620117188</ele>
        <time>2012-03-27T11:12:08Z</time>
      </trkpt>
      <trkpt lat="43.75595" lon="7.04698">
        <ele>975.87548828125</ele>
        <time>2012-03-27T11:12:22Z</time>
      </trkpt>
      <trkpt lat="43.75556" lon="7.04749">
        <ele>973.47241210938</ele>
        <time>2012-03-27T11:12:37Z</time>
      </trkpt>
      <trkpt lat="43.75528" lon="7.04811">
        <ele>973.47241210938</ele>
        <time>2012-03-27T11:12:53Z</time>
      </trkpt>
      <trkpt lat="43.75507" lon="7.04871">
        <ele>975.39477539062</ele>
        <time>2012-03-27T11:13:09Z</time>
      </trkpt>
      <trkpt lat="43.75502" lon="7.04913">
        <ele>978.75952148438</ele>
        <time>2012-03-27T11:13:21Z</time>
      </trkpt>
      <trkpt lat="43.75491" lon="7.04959">
        <ele>980.68212890625</ele>
        <time>2012-03-27T11:13:36Z</time>
      </trkpt>
      <trkpt lat="43.75467" lon="7.0498">
        <ele>979.720703125</ele>
        <time>2012-03-27T11:13:45Z</time>
      </trkpt>
      <trkpt lat="43.75456" lon="7.0502">
        <ele>979.23999023438</ele>
        <time>2012-03-27T11:13:52Z</time>
      </trkpt>
      <trkpt lat="43.75443" lon="7.05096">
        <ele>979.23999023438</ele>
        <time>2012-03-27T11:14:06Z</time>
      </trkpt>
      <trkpt lat="43.7542" lon="7.05136">
        <ele>978.27880859375</ele>
        <time>2012-03-27T11:14:16Z</time>
      </trkpt>
      <trkpt lat="43.75387" lon="7.05155">
        <ele>978.27880859375</ele>
        <time>2012-03-27T11:14:24Z</time>
      </trkpt>
      <trkpt lat="43.75352" lon="7.05215">
        <ele>978.75952148438</ele>
        <time>2012-03-27T11:14:39Z</time>
      </trkpt>
      <trkpt lat="43.75308" lon="7.05282">
        <ele>976.8369140625</ele>
        <time>2012-03-27T11:14:55Z</time>
      </trkpt>
      <trkpt lat="43.75284" lon="7.05347">
        <ele>977.31762695312</ele>
        <time>2012-03-27T11:15:09Z</time>
      </trkpt>
      <trkpt lat="43.75267" lon="7.05399">
        <ele>974.91430664062</ele>
        <time>2012-03-27T11:15:19Z</time>
      </trkpt>
      <trkpt lat="43.75256" lon="7.05419">
        <ele>973.95288085938</ele>
        <time>2012-03-27T11:15:23Z</time>
      </trkpt>
      <trkpt lat="43.75245" lon="7.0543">
        <ele>972.99169921875</ele>
        <time>2012-03-27T11:15:26Z</time>
      </trkpt>
      <trkpt lat="43.75231" lon="7.05448">
        <ele>971.54931640625</ele>
        <time>2012-03-27T11:15:30Z</time>
      </trkpt>
      <trkpt lat="43.75187" lon="7.05482">
        <ele>970.107421875</ele>
        <time>2012-03-27T11:15:41Z</time>
      </trkpt>
      <trkpt lat="43.7514" lon="7.05545">
        <ele>973.95288085938</ele>
        <time>2012-03-27T11:15:58Z</time>
      </trkpt>
      <trkpt lat="43.75138" lon="7.05547">
        <ele>973.95288085938</ele>
        <time>2012-03-27T11:15:59Z</time>
      </trkpt>
      <trkpt lat="43.75102" lon="7.05572">
        <ele>977.31762695312</ele>
        <time>2012-03-27T11:16:12Z</time>
      </trkpt>
      <trkpt lat="43.75055" lon="7.05617">
        <ele>978.75952148438</ele>
        <time>2012-03-27T11:16:32Z</time>
      </trkpt>
      <trkpt lat="43.75034" lon="7.05659">
        <ele>978.75952148438</ele>
        <time>2012-03-27T11:16:44Z</time>
      </trkpt>
      <trkpt lat="43.75018" lon="7.05675">
        <ele>977.79809570312</ele>
        <time>2012-03-27T11:16:49Z</time>
      </trkpt>
      <trkpt lat="43.74996" lon="7.05681">
        <ele>975.39477539062</ele>
        <time>2012-03-27T11:16:54Z</time>
      </trkpt>
      <trkpt lat="43.74986" lon="7.0569">
        <ele>974.91430664062</ele>
        <time>2012-03-27T11:16:57Z</time>
      </trkpt>
      <trkpt lat="43.74979" lon="7.05704">
        <ele>973.95288085938</ele>
        <time>2012-03-27T11:17:00Z</time>
      </trkpt>
      <trkpt lat="43.74969" lon="7.05724">
        <ele>973.47241210938</ele>
        <time>2012-03-27T11:17:04Z</time>
      </trkpt>
      <trkpt lat="43.7496" lon="7.05741">
        <ele>972.51098632812</ele>
        <time>2012-03-27T11:17:07Z</time>
      </trkpt>
      <trkpt lat="43.74939" lon="7.0578">
        <ele>970.107421875</ele>
        <time>2012-03-27T11:17:14Z</time>
      </trkpt>
      <trkpt lat="43.74919" lon="7.05816">
        <ele>966.74291992188</ele>
        <time>2012-03-27T11:17:23Z</time>
      </trkpt>
      <trkpt lat="43.74904" lon="7.05828">
        <ele>963.85888671875</ele>
        <time>2012-03-27T11:17:28Z</time>
      </trkpt>
      <trkpt lat="43.74873" lon="7.05831">
        <ele>960.49438476562</ele>
        <time>2012-03-27T11:17:37Z</time>
      </trkpt>
      <trkpt lat="43.74859" lon="7.05828">
        <ele>959.05249023438</ele>
        <time>2012-03-27T11:17:40Z</time>
      </trkpt>
      <trkpt lat="43.74854" lon="7.05827">
        <ele>957.1298828125</ele>
        <time>2012-03-27T11:17:41Z</time>
      </trkpt>
      <trkpt lat="43.74832" lon="7.05834">
        <ele>953.28442382812</ele>
        <time>2012-03-27T11:17:46Z</time>
      </trkpt>
      <trkpt lat="43.74828" lon="7.05836">
        <ele>954.24584960938</ele>
        <time>2012-03-27T11:17:47Z</time>
      </trkpt>
      <trkpt lat="43.74816" lon="7.05839">
        <ele>952.32299804688</ele>
        <time>2012-03-27T11:17:50Z</time>
      </trkpt>
      <trkpt lat="43.74809" lon="7.05844">
        <ele>951.84252929688</ele>
        <time>2012-03-27T11:17:53Z</time>
      </trkpt>
      <trkpt lat="43.74803" lon="7.05854">
        <ele>949.919921875</ele>
        <time>2012-03-27T11:17:56Z</time>
      </trkpt>
      <trkpt lat="43.74793" lon="7.05874">
        <ele>946.07470703125</ele>
        <time>2012-03-27T11:18:02Z</time>
      </trkpt>
      <trkpt lat="43.74785" lon="7.05889">
        <ele>944.15209960938</ele>
        <time>2012-03-27T11:18:06Z</time>
      </trkpt>
      <trkpt lat="43.74779" lon="7.05895">
        <ele>943.19067382812</ele>
        <time>2012-03-27T11:18:08Z</time>
      </trkpt>
      <trkpt lat="43.74772" lon="7.05901">
        <ele>942.2294921875</ele>
        <time>2012-03-27T11:18:10Z</time>
      </trkpt>
      <trkpt lat="43.74742" lon="7.05909">
        <ele>941.26806640625</ele>
        <time>2012-03-27T11:18:20Z</time>
      </trkpt>
      <trkpt lat="43.74704" lon="7.05872">
        <ele>938.38403320312</ele>
        <time>2012-03-27T11:18:33Z</time>
      </trkpt>
      <trkpt lat="43.74676" lon="7.05857">
        <ele>937.9033203125</ele>
        <time>2012-03-27T11:18:42Z</time>
      </trkpt>
      <trkpt lat="43.74656" lon="7.05841">
        <ele>941.26806640625</ele>
        <time>2012-03-27T11:18:50Z</time>
      </trkpt>
      <trkpt lat="43.74623" lon="7.05839">
        <ele>942.2294921875</ele>
        <time>2012-03-27T11:19:03Z</time>
      </trkpt>
      <trkpt lat="43.7459" lon="7.05811">
        <ele>941.26806640625</ele>
        <time>2012-03-27T11:19:16Z</time>
      </trkpt>
      <trkpt lat="43.74579" lon="7.05811">
        <ele>940.30688476562</ele>
        <time>2012-03-27T11:19:19Z</time>
      </trkpt>
      <trkpt lat="43.74563" lon="7.05817">
        <ele>936.94189453125</ele>
        <time>2012-03-27T11:19:24Z</time>
      </trkpt>
      <trkpt lat="43.74561" lon="7.05819">
        <ele>936.94189453125</ele>
        <time>2012-03-27T11:19:25Z</time>
      </trkpt>
      <trkpt lat="43.74551" lon="7.05837">
        <ele>933.57739257812</ele>
        <time>2012-03-27T11:19:32Z</time>
      </trkpt>
      <trkpt lat="43.74546" lon="7.05846">
        <ele>932.13549804688</ele>
        <time>2012-03-27T11:19:35Z</time>
      </trkpt>
      <trkpt lat="43.74542" lon="7.05853">
        <ele>930.69360351562</ele>
        <time>2012-03-27T11:19:37Z</time>
      </trkpt>
      <trkpt lat="43.74534" lon="7.0586">
        <ele>929.25146484375</ele>
        <time>2012-03-27T11:19:39Z</time>
      </trkpt>
      <trkpt lat="43.74526" lon="7.05863">
        <ele>927.8095703125</ele>
        <time>2012-03-27T11:19:41Z</time>
      </trkpt>
      <trkpt lat="43.74515" lon="7.05864">
        <ele>926.36767578125</ele>
        <time>2012-03-27T11:19:44Z</time>
      </trkpt>
      <trkpt lat="43.74508" lon="7.05863">
        <ele>925.40625</ele>
        <time>2012-03-27T11:19:46Z</time>
      </trkpt>
      <trkpt lat="43.745" lon="7.0586">
        <ele>923.96411132812</ele>
        <time>2012-03-27T11:19:48Z</time>
      </trkpt>
      <trkpt lat="43.74457" lon="7.05834">
        <ele>924.44506835938</ele>
        <time>2012-03-27T11:20:00Z</time>
      </trkpt>
      <trkpt lat="43.74431" lon="7.05849">
        <ele>923.48364257812</ele>
        <time>2012-03-27T11:20:08Z</time>
      </trkpt>
      <trkpt lat="43.74417" lon="7.05907">
        <ele>923.96411132812</ele>
        <time>2012-03-27T11:20:20Z</time>
      </trkpt>
      <trkpt lat="43.74411" lon="7.05976">
        <ele>923.48364257812</ele>
        <time>2012-03-27T11:20:33Z</time>
      </trkpt>
      <trkpt lat="43.74412" lon="7.06029">
        <ele>923.48364257812</ele>
        <time>2012-03-27T11:20:45Z</time>
      </trkpt>
      <trkpt lat="43.74406" lon="7.06089">
        <ele>925.40625</ele>
        <time>2012-03-27T11:21:00Z</time>
      </trkpt>
      <trkpt lat="43.74401" lon="7.06129">
        <ele>927.3291015625</ele>
        <time>2012-03-27T11:21:13Z</time>
      </trkpt>
      <trkpt lat="43.74394" lon="7.06161">
        <ele>930.69360351562</ele>
        <time>2012-03-27T11:21:24Z</time>
      </trkpt>
      <trkpt lat="43.74391" lon="7.06175">
        <ele>931.65478515625</ele>
        <time>2012-03-27T11:21:28Z</time>
      </trkpt>
      <trkpt lat="43.74367" lon="7.06206">
        <ele>929.73217773438</ele>
        <time>2012-03-27T11:21:43Z</time>
      </trkpt>
      <trkpt lat="43.7436" lon="7.06202">
        <ele>930.69360351562</ele>
        <time>2012-03-27T11:21:54Z</time>
      </trkpt>
      <trkpt lat="43.74357" lon="7.06198">
        <ele>929.25146484375</ele>
        <time>2012-03-27T11:21:57Z</time>
      </trkpt>
      <trkpt lat="43.74346" lon="7.06181">
        <ele>928.29028320312</ele>
        <time>2012-03-27T11:22:09Z</time>
      </trkpt>
      <trkpt lat="43.74336" lon="7.06144">
        <ele>927.3291015625</ele>
        <time>2012-03-27T11:22:19Z</time>
      </trkpt>
      <trkpt lat="43.74336" lon="7.06128">
        <ele>925.88696289062</ele>
        <time>2012-03-27T11:22:23Z</time>
      </trkpt>
      <trkpt lat="43.74329" lon="7.06111">
        <ele>923.96411132812</ele>
        <time>2012-03-27T11:22:30Z</time>
      </trkpt>
      <trkpt lat="43.74332" lon="7.06091">
        <ele>923.0029296875</ele>
        <time>2012-03-27T11:22:43Z</time>
      </trkpt>
      <trkpt lat="43.74332" lon="7.06061">
        <ele>923.0029296875</ele>
        <time>2012-03-27T11:22:54Z</time>
      </trkpt>
      <trkpt lat="43.7433" lon="7.06045">
        <ele>922.04150390625</ele>
        <time>2012-03-27T11:22:59Z</time>
      </trkpt>
      <trkpt lat="43.74327" lon="7.06035">
        <ele>920.599609375</ele>
        <time>2012-03-27T11:23:04Z</time>
      </trkpt>
      <trkpt lat="43.74326" lon="7.06026">
        <ele>919.15771484375</ele>
        <time>2012-03-27T11:23:08Z</time>
      </trkpt>
      <trkpt lat="43.74317" lon="7.06012">
        <ele>915.79321289062</ele>
        <time>2012-03-27T11:23:16Z</time>
      </trkpt>
      <trkpt lat="43.74316" lon="7.06012">
        <ele>915.3125</ele>
        <time>2012-03-27T11:23:17Z</time>
      </trkpt>
      <trkpt lat="43.74308" lon="7.06009">
        <ele>912.42846679688</ele>
        <time>2012-03-27T11:23:21Z</time>
      </trkpt>
      <trkpt lat="43.74305" lon="7.06008">
        <ele>911.94799804688</ele>
        <time>2012-03-27T11:23:23Z</time>
      </trkpt>
      <trkpt lat="43.743" lon="7.06011">
        <ele>910.505859375</ele>
        <time>2012-03-27T11:23:27Z</time>
      </trkpt>
      <trkpt lat="43.74291" lon="7.06024">
        <ele>908.58325195312</ele>
        <time>2012-03-27T11:23:34Z</time>
      </trkpt>
      <trkpt lat="43.74286" lon="7.06024">
        <ele>907.14111328125</ele>
        <time>2012-03-27T11:23:39Z</time>
      </trkpt>
      <trkpt lat="43.74279" lon="7.06016">
        <ele>904.25732421875</ele>
        <time>2012-03-27T11:23:49Z</time>
      </trkpt>
      <trkpt lat="43.74276" lon="7.06012">
        <ele>903.2958984375</ele>
        <time>2012-03-27T11:23:55Z</time>
      </trkpt>
      <trkpt lat="43.74272" lon="7.06007">
        <ele>901.37329101562</ele>
        <time>2012-03-27T11:24:09Z</time>
      </trkpt>
      <trkpt lat="43.7427" lon="7.06007">
        <ele>901.37329101562</ele>
        <time>2012-03-27T11:24:18Z</time>
      </trkpt>
      <trkpt lat="43.74269" lon="7.06005">
        <ele>900.892578125</ele>
        <time>2012-03-27T11:24:20Z</time>
      </trkpt>
      <trkpt lat="43.74262" lon="7.05993">
        <ele>897.04736328125</ele>
        <time>2012-03-27T11:24:26Z</time>
      </trkpt>
      <trkpt lat="43.7426" lon="7.05987">
        <ele>896.08618164062</ele>
        <time>2012-03-27T11:24:28Z</time>
      </trkpt>
      <trkpt lat="43.74257" lon="7.0597">
        <ele>895.12475585938</ele>
        <time>2012-03-27T11:24:37Z</time>
      </trkpt>
      <trkpt lat="43.7425" lon="7.05964">
        <ele>892.24096679688</ele>
        <time>2012-03-27T11:24:54Z</time>
      </trkpt>
      <trkpt lat="43.74244" lon="7.05959">
        <ele>889.35668945312</ele>
        <time>2012-03-27T11:25:07Z</time>
      </trkpt>
      <trkpt lat="43.74238" lon="7.05945">
        <ele>886.95336914062</ele>
        <time>2012-03-27T11:25:13Z</time>
      </trkpt>
      <trkpt lat="43.74235" lon="7.05939">
        <ele>885.9921875</ele>
        <time>2012-03-27T11:25:15Z</time>
      </trkpt>
      <trkpt lat="43.74233" lon="7.0592">
        <ele>884.06958007812</ele>
        <time>2012-03-27T11:25:26Z</time>
      </trkpt>
      <trkpt lat="43.74229" lon="7.05915">
        <ele>883.10815429688</ele>
        <time>2012-03-27T11:25:34Z</time>
      </trkpt>
      <trkpt lat="43.74222" lon="7.059">
        <ele>880.22436523438</ele>
        <time>2012-03-27T11:25:41Z</time>
      </trkpt>
      <trkpt lat="43.74216" lon="7.0589">
        <ele>879.74365234375</ele>
        <time>2012-03-27T11:25:47Z</time>
      </trkpt>
      <trkpt lat="43.74208" lon="7.05887">
        <ele>877.82104492188</ele>
        <time>2012-03-27T11:25:51Z</time>
      </trkpt>
      <trkpt lat="43.742" lon="7.05889">
        <ele>878.3017578125</ele>
        <time>2012-03-27T11:26:00Z</time>
      </trkpt>
      <trkpt lat="43.74199" lon="7.05897">
        <ele>877.34057617188</ele>
        <time>2012-03-27T11:26:14Z</time>
      </trkpt>
      <trkpt lat="43.74198" lon="7.059">
        <ele>878.3017578125</ele>
        <time>2012-03-27T11:27:47Z</time>
      </trkpt>
      <trkpt lat="43.74188" lon="7.05947">
        <ele>876.37915039062</ele>
        <time>2012-03-27T11:28:01Z</time>
      </trkpt>
      <trkpt lat="43.74189" lon="7.05985">
        <ele>874.45629882812</ele>
        <time>2012-03-27T11:28:10Z</time>
      </trkpt>
      <trkpt lat="43.74189" lon="7.05995">
        <ele>872.53369140625</ele>
        <time>2012-03-27T11:28:12Z</time>
      </trkpt>
      <trkpt lat="43.7419" lon="7.06013">
        <ele>869.16918945312</ele>
        <time>2012-03-27T11:28:17Z</time>
      </trkpt>
      <trkpt lat="43.74191" lon="7.06017">
        <ele>868.6884765625</ele>
        <time>2012-03-27T11:28:18Z</time>
      </trkpt>
      <trkpt lat="43.74191" lon="7.06029">
        <ele>866.76586914062</ele>
        <time>2012-03-27T11:28:21Z</time>
      </trkpt>
      <trkpt lat="43.74191" lon="7.06052">
        <ele>865.32397460938</ele>
        <time>2012-03-27T11:28:31Z</time>
      </trkpt>
      <trkpt lat="43.74193" lon="7.06065">
        <ele>861.95947265625</ele>
        <time>2012-03-27T11:28:39Z</time>
      </trkpt>
      <trkpt lat="43.74191" lon="7.06089">
        <ele>859.0751953125</ele>
        <time>2012-03-27T11:28:50Z</time>
      </trkpt>
      <trkpt lat="43.74188" lon="7.06097">
        <ele>858.11401367188</ele>
        <time>2012-03-27T11:28:53Z</time>
      </trkpt>
      <trkpt lat="43.74181" lon="7.06134">
        <ele>856.19116210938</ele>
        <time>2012-03-27T11:29:03Z</time>
      </trkpt>
      <trkpt lat="43.74181" lon="7.06159">
        <ele>853.7880859375</ele>
        <time>2012-03-27T11:29:07Z</time>
      </trkpt>
      <trkpt lat="43.74181" lon="7.06165">
        <ele>853.30737304688</ele>
        <time>2012-03-27T11:29:08Z</time>
      </trkpt>
      <trkpt lat="43.74187" lon="7.06223">
        <ele>849.94287109375</ele>
        <time>2012-03-27T11:29:19Z</time>
      </trkpt>
      <trkpt lat="43.7419" lon="7.06246">
        <ele>847.05883789062</ele>
        <time>2012-03-27T11:29:24Z</time>
      </trkpt>
      <trkpt lat="43.7419" lon="7.06266">
        <ele>845.13623046875</ele>
        <time>2012-03-27T11:29:28Z</time>
      </trkpt>
      <trkpt lat="43.74191" lon="7.06301">
        <ele>841.771484375</ele>
        <time>2012-03-27T11:29:37Z</time>
      </trkpt>
      <trkpt lat="43.74192" lon="7.06317">
        <ele>840.81005859375</ele>
        <time>2012-03-27T11:29:40Z</time>
      </trkpt>
      <trkpt lat="43.74189" lon="7.06333">
        <ele>839.84887695312</ele>
        <time>2012-03-27T11:29:49Z</time>
      </trkpt>
      <trkpt lat="43.74188" lon="7.06344">
        <ele>838.8876953125</ele>
        <time>2012-03-27T11:29:53Z</time>
      </trkpt>
      <trkpt lat="43.74188" lon="7.06348">
        <ele>838.40698242188</ele>
        <time>2012-03-27T11:30:05Z</time>
      </trkpt>
      <trkpt lat="43.74188" lon="7.06348">
        <ele>837.44555664062</ele>
        <time>2012-03-27T11:30:10Z</time>
      </trkpt>
      <trkpt lat="43.74192" lon="7.06363">
        <ele>835.04248046875</ele>
        <time>2012-03-27T11:30:13Z</time>
      </trkpt>
      <trkpt lat="43.742" lon="7.06389">
        <ele>830.71655273438</ele>
        <time>2012-03-27T11:30:22Z</time>
      </trkpt>
      <trkpt lat="43.74203" lon="7.06403">
        <ele>828.31323242188</ele>
        <time>2012-03-27T11:30:26Z</time>
      </trkpt>
      <trkpt lat="43.74204" lon="7.06406">
        <ele>826.39038085938</ele>
        <time>2012-03-27T11:30:27Z</time>
      </trkpt>
      <trkpt lat="43.74204" lon="7.06413">
        <ele>825.90966796875</ele>
        <time>2012-03-27T11:30:29Z</time>
      </trkpt>
      <trkpt lat="43.74207" lon="7.06425">
        <ele>824.4677734375</ele>
        <time>2012-03-27T11:30:32Z</time>
      </trkpt>
      <trkpt lat="43.74211" lon="7.06443">
        <ele>820.62255859375</ele>
        <time>2012-03-27T11:30:37Z</time>
      </trkpt>
      <trkpt lat="43.74213" lon="7.06476">
        <ele>817.73852539062</ele>
        <time>2012-03-27T11:30:45Z</time>
      </trkpt>
      <trkpt lat="43.74213" lon="7.06502">
        <ele>814.3740234375</ele>
        <time>2012-03-27T11:30:53Z</time>
      </trkpt>
      <trkpt lat="43.74213" lon="7.06521">
        <ele>811.970703125</ele>
        <time>2012-03-27T11:31:05Z</time>
      </trkpt>
      <trkpt lat="43.74215" lon="7.06537">
        <ele>809.08666992188</ele>
        <time>2012-03-27T11:31:13Z</time>
      </trkpt>
      <trkpt lat="43.74215" lon="7.06537">
        <ele>808.12548828125</ele>
        <time>2012-03-27T11:31:24Z</time>
      </trkpt>
      <trkpt lat="43.74215" lon="7.06537">
        <ele>806.20263671875</ele>
        <time>2012-03-27T11:31:35Z</time>
      </trkpt>
      <trkpt lat="43.74215" lon="7.06621">
        <ele>805.72216796875</ele>
        <time>2012-03-27T11:31:49Z</time>
      </trkpt>
      <trkpt lat="43.74216" lon="7.06632">
        <ele>805.24145507812</ele>
        <time>2012-03-27T11:31:51Z</time>
      </trkpt>
      <trkpt lat="43.74224" lon="7.06687">
        <ele>805.24145507812</ele>
        <time>2012-03-27T11:32:04Z</time>
      </trkpt>
      <trkpt lat="43.74232" lon="7.06751">
        <ele>804.7607421875</ele>
        <time>2012-03-27T11:32:19Z</time>
      </trkpt>
      <trkpt lat="43.74218" lon="7.06812">
        <ele>804.7607421875</ele>
        <time>2012-03-27T11:32:35Z</time>
      </trkpt>
      <trkpt lat="43.74207" lon="7.0684">
        <ele>805.24145507812</ele>
        <time>2012-03-27T11:32:46Z</time>
      </trkpt>
      <trkpt lat="43.74207" lon="7.0684">
        <ele>806.68334960938</ele>
        <time>2012-03-27T11:32:59Z</time>
      </trkpt>
      <trkpt lat="43.74207" lon="7.0684">
        <ele>804.2802734375</ele>
        <time>2012-03-27T11:33:09Z</time>
      </trkpt>
      <trkpt lat="43.74191" lon="7.06862">
        <ele>801.876953125</ele>
        <time>2012-03-27T11:33:19Z</time>
      </trkpt>
      <trkpt lat="43.74183" lon="7.06892">
        <ele>801.39624023438</ele>
        <time>2012-03-27T11:33:25Z</time>
      </trkpt>
      <trkpt lat="43.74181" lon="7.06906">
        <ele>800.43505859375</ele>
        <time>2012-03-27T11:33:30Z</time>
      </trkpt>
      <trkpt lat="43.74179" lon="7.06915">
        <ele>798.99291992188</ele>
        <time>2012-03-27T11:33:40Z</time>
      </trkpt>
      <trkpt lat="43.74179" lon="7.06915">
        <ele>800.43505859375</ele>
        <time>2012-03-27T11:33:49Z</time>
      </trkpt>
      <trkpt lat="43.74179" lon="7.06915">
        <ele>800.43505859375</ele>
        <time>2012-03-27T11:34:02Z</time>
      </trkpt>
      <trkpt lat="43.74179" lon="7.06915">
        <ele>799.95434570312</ele>
        <time>2012-03-27T11:34:05Z</time>
      </trkpt>
      <trkpt lat="43.74162" lon="7.0694">
        <ele>798.51220703125</ele>
        <time>2012-03-27T11:34:16Z</time>
      </trkpt>
      <trkpt lat="43.74179" lon="7.06966">
        <ele>798.51220703125</ele>
        <time>2012-03-27T11:34:27Z</time>
      </trkpt>
      <trkpt lat="43.74125" lon="7.06964">
        <ele>798.03173828125</ele>
        <time>2012-03-27T11:34:38Z</time>
      </trkpt>
      <trkpt lat="43.74117" lon="7.06972">
        <ele>795.62817382812</ele>
        <time>2012-03-27T11:34:53Z</time>
      </trkpt>
      <trkpt lat="43.74099" lon="7.06994">
        <ele>794.18627929688</ele>
        <time>2012-03-27T11:34:57Z</time>
      </trkpt>
      <trkpt lat="43.74127" lon="7.0708">
        <ele>793.22485351562</ele>
        <time>2012-03-27T11:35:07Z</time>
      </trkpt>
      <trkpt lat="43.74138" lon="7.07133">
        <ele>791.78295898438</ele>
        <time>2012-03-27T11:35:12Z</time>
      </trkpt>
      <trkpt lat="43.7409" lon="7.0708">
        <ele>792.74438476562</ele>
        <time>2012-03-27T11:35:22Z</time>
      </trkpt>
      <trkpt lat="43.74056" lon="7.07115">
        <ele>793.22485351562</ele>
        <time>2012-03-27T11:35:37Z</time>
      </trkpt>
      <trkpt lat="43.7404" lon="7.0715">
        <ele>793.70556640625</ele>
        <time>2012-03-27T11:35:47Z</time>
      </trkpt>
      <trkpt lat="43.73987" lon="7.07173">
        <ele>794.18627929688</ele>
        <time>2012-03-27T11:36:04Z</time>
      </trkpt>
      <trkpt lat="43.73949" lon="7.07151">
        <ele>793.70556640625</ele>
        <time>2012-03-27T11:36:17Z</time>
      </trkpt>
      <trkpt lat="43.73934" lon="7.0711">
        <ele>797.0703125</ele>
        <time>2012-03-27T11:36:32Z</time>
      </trkpt>
      <trkpt lat="43.73932" lon="7.07099">
        <ele>798.99291992188</ele>
        <time>2012-03-27T11:36:37Z</time>
      </trkpt>
      <trkpt lat="43.7393" lon="7.07091">
        <ele>800.43505859375</ele>
        <time>2012-03-27T11:36:41Z</time>
      </trkpt>
      <trkpt lat="43.73929" lon="7.07089">
        <ele>802.83813476562</ele>
        <time>2012-03-27T11:36:51Z</time>
      </trkpt>
      <trkpt lat="43.73929" lon="7.07089">
        <ele>806.20263671875</ele>
        <time>2012-03-27T11:37:03Z</time>
      </trkpt>
      <trkpt lat="43.73929" lon="7.07089">
        <ele>806.20263671875</ele>
        <time>2012-03-27T11:37:04Z</time>
      </trkpt>
      <trkpt lat="43.73929" lon="7.07089">
        <ele>806.20263671875</ele>
        <time>2012-03-27T11:37:09Z</time>
      </trkpt>
      <trkpt lat="43.73919" lon="7.07069">
        <ele>809.5673828125</ele>
        <time>2012-03-27T11:37:27Z</time>
      </trkpt>
      <trkpt lat="43.73919" lon="7.07069">
        <ele>812.93212890625</ele>
        <time>2012-03-27T11:37:41Z</time>
      </trkpt>
      <trkpt lat="43.73919" lon="7.07069">
        <ele>815.33544921875</ele>
        <time>2012-03-27T11:37:57Z</time>
      </trkpt>
      <trkpt lat="43.73919" lon="7.07069">
        <ele>816.77734375</ele>
        <time>2012-03-27T11:38:03Z</time>
      </trkpt>
      <trkpt lat="43.73919" lon="7.07069">
        <ele>819.66137695312</ele>
        <time>2012-03-27T11:38:25Z</time>
      </trkpt>
      <trkpt lat="43.73919" lon="7.07069">
        <ele>823.02587890625</ele>
        <time>2012-03-27T11:38:45Z</time>
      </trkpt>
      <trkpt lat="43.73919" lon="7.07069">
        <ele>822.54516601562</ele>
        <time>2012-03-27T11:38:46Z</time>
      </trkpt>
      <trkpt lat="43.7382" lon="7.07048">
        <ele>823.02587890625</ele>
        <time>2012-03-27T11:39:00Z</time>
      </trkpt>
      <trkpt lat="43.73801" lon="7.07043">
        <ele>824.94848632812</ele>
        <time>2012-03-27T11:39:12Z</time>
      </trkpt>
      <trkpt lat="43.73773" lon="7.07028">
        <ele>826.39038085938</ele>
        <time>2012-03-27T11:39:28Z</time>
      </trkpt>
      <trkpt lat="43.73742" lon="7.07021">
        <ele>829.75512695312</ele>
        <time>2012-03-27T11:39:46Z</time>
      </trkpt>
      <trkpt lat="43.73732" lon="7.07023">
        <ele>830.71655273438</ele>
        <time>2012-03-27T11:39:52Z</time>
      </trkpt>
      <trkpt lat="43.73705" lon="7.07024">
        <ele>833.60034179688</ele>
        <time>2012-03-27T11:40:08Z</time>
      </trkpt>
      <trkpt lat="43.73702" lon="7.07023">
        <ele>834.56176757812</ele>
        <time>2012-03-27T11:40:24Z</time>
      </trkpt>
      <trkpt lat="43.73687" lon="7.07008">
        <ele>835.52294921875</ele>
        <time>2012-03-27T11:40:49Z</time>
      </trkpt>
      <trkpt lat="43.73687" lon="7.07008">
        <ele>834.56176757812</ele>
        <time>2012-03-27T11:40:59Z</time>
      </trkpt>
      <trkpt lat="43.73687" lon="7.07008">
        <ele>833.60034179688</ele>
        <time>2012-03-27T11:41:11Z</time>
      </trkpt>
      <trkpt lat="43.73674" lon="7.07002">
        <ele>831.197265625</ele>
        <time>2012-03-27T11:41:15Z</time>
      </trkpt>
      <trkpt lat="43.73667" lon="7.06997">
        <ele>830.23583984375</ele>
        <time>2012-03-27T11:41:17Z</time>
      </trkpt>
      <trkpt lat="43.73644" lon="7.06991">
        <ele>830.71655273438</ele>
        <time>2012-03-27T11:41:27Z</time>
      </trkpt>
      <trkpt lat="43.73613" lon="7.0699">
        <ele>827.83227539062</ele>
        <time>2012-03-27T11:41:37Z</time>
      </trkpt>
      <trkpt lat="43.73581" lon="7.06976">
        <ele>827.35180664062</ele>
        <time>2012-03-27T11:41:48Z</time>
      </trkpt>
      <trkpt lat="43.7356" lon="7.06943">
        <ele>828.31323242188</ele>
        <time>2012-03-27T11:42:00Z</time>
      </trkpt>
      <trkpt lat="43.7355" lon="7.06899">
        <ele>830.23583984375</ele>
        <time>2012-03-27T11:42:13Z</time>
      </trkpt>
      <trkpt lat="43.73546" lon="7.06882">
        <ele>832.15844726562</ele>
        <time>2012-03-27T11:42:19Z</time>
      </trkpt>
      <trkpt lat="43.73538" lon="7.06862">
        <ele>832.15844726562</ele>
        <time>2012-03-27T11:42:28Z</time>
      </trkpt>
      <trkpt lat="43.73528" lon="7.06853">
        <ele>829.75512695312</ele>
        <time>2012-03-27T11:42:33Z</time>
      </trkpt>
      <trkpt lat="43.73504" lon="7.06832">
        <ele>829.2744140625</ele>
        <time>2012-03-27T11:42:42Z</time>
      </trkpt>
      <trkpt lat="43.73477" lon="7.06799">
        <ele>828.31323242188</ele>
        <time>2012-03-27T11:42:54Z</time>
      </trkpt>
      <trkpt lat="43.73461" lon="7.06752">
        <ele>829.75512695312</ele>
        <time>2012-03-27T11:43:07Z</time>
      </trkpt>
      <trkpt lat="43.73445" lon="7.06722">
        <ele>828.7939453125</ele>
        <time>2012-03-27T11:43:15Z</time>
      </trkpt>
      <trkpt lat="43.73432" lon="7.0671">
        <ele>826.87109375</ele>
        <time>2012-03-27T11:43:19Z</time>
      </trkpt>
      <trkpt lat="43.73429" lon="7.06707">
        <ele>826.39038085938</ele>
        <time>2012-03-27T11:43:20Z</time>
      </trkpt>
      <trkpt lat="43.73417" lon="7.06684">
        <ele>825.90966796875</ele>
        <time>2012-03-27T11:43:25Z</time>
      </trkpt>
      <trkpt lat="43.73411" lon="7.06666">
        <ele>824.94848632812</ele>
        <time>2012-03-27T11:43:30Z</time>
      </trkpt>
      <trkpt lat="43.73406" lon="7.06659">
        <ele>823.02587890625</ele>
        <time>2012-03-27T11:43:34Z</time>
      </trkpt>
      <trkpt lat="43.73392" lon="7.06639">
        <ele>823.02587890625</ele>
        <time>2012-03-27T11:43:36Z</time>
      </trkpt>
      <trkpt lat="43.73386" lon="7.06629">
        <ele>822.064453125</ele>
        <time>2012-03-27T11:43:38Z</time>
      </trkpt>
      <trkpt lat="43.7338" lon="7.06612">
        <ele>823.50659179688</ele>
        <time>2012-03-27T11:43:41Z</time>
      </trkpt>
      <trkpt lat="43.73377" lon="7.06555">
        <ele>825.90966796875</ele>
        <time>2012-03-27T11:43:55Z</time>
      </trkpt>
      <trkpt lat="43.73373" lon="7.06492">
        <ele>825.90966796875</ele>
        <time>2012-03-27T11:44:12Z</time>
      </trkpt>
      <trkpt lat="43.73346" lon="7.06414">
        <ele>824.94848632812</ele>
        <time>2012-03-27T11:44:30Z</time>
      </trkpt>
      <trkpt lat="43.7334" lon="7.06399">
        <ele>824.94848632812</ele>
        <time>2012-03-27T11:44:43Z</time>
      </trkpt>
      <trkpt lat="43.7334" lon="7.06399">
        <ele>824.94848632812</ele>
        <time>2012-03-27T11:44:58Z</time>
      </trkpt>
      <trkpt lat="43.7334" lon="7.06399">
        <ele>824.4677734375</ele>
        <time>2012-03-27T11:45:18Z</time>
      </trkpt>
      <trkpt lat="43.73329" lon="7.06373">
        <ele>823.50659179688</ele>
        <time>2012-03-27T11:45:55Z</time>
      </trkpt>
      <trkpt lat="43.73317" lon="7.06344">
        <ele>819.66137695312</ele>
        <time>2012-03-27T11:46:02Z</time>
      </trkpt>
      <trkpt lat="43.73316" lon="7.06334">
        <ele>818.69995117188</ele>
        <time>2012-03-27T11:46:04Z</time>
      </trkpt>
      <trkpt lat="43.73316" lon="7.06304">
        <ele>815.33544921875</ele>
        <time>2012-03-27T11:46:08Z</time>
      </trkpt>
      <trkpt lat="43.73315" lon="7.06199">
        <ele>815.33544921875</ele>
        <time>2012-03-27T11:46:19Z</time>
      </trkpt>
      <trkpt lat="43.73308" lon="7.06163">
        <ele>813.41284179688</ele>
        <time>2012-03-27T11:46:25Z</time>
      </trkpt>
      <trkpt lat="43.73302" lon="7.06151">
        <ele>811.970703125</ele>
        <time>2012-03-27T11:46:27Z</time>
      </trkpt>
      <trkpt lat="43.73297" lon="7.06127">
        <ele>811.00927734375</ele>
        <time>2012-03-27T11:46:30Z</time>
      </trkpt>
      <trkpt lat="43.73297" lon="7.06076">
        <ele>812.93212890625</ele>
        <time>2012-03-27T11:46:40Z</time>
      </trkpt>
      <trkpt lat="43.733" lon="7.06067">
        <ele>812.45141601562</ele>
        <time>2012-03-27T11:46:42Z</time>
      </trkpt>
      <trkpt lat="43.73311" lon="7.06036">
        <ele>810.52856445312</ele>
        <time>2012-03-27T11:46:47Z</time>
      </trkpt>
      <trkpt lat="43.73308" lon="7.05945">
        <ele>807.1640625</ele>
        <time>2012-03-27T11:46:57Z</time>
      </trkpt>
      <trkpt lat="43.73305" lon="7.0592">
        <ele>810.52856445312</ele>
        <time>2012-03-27T11:47:02Z</time>
      </trkpt>
      <trkpt lat="43.73305" lon="7.05916">
        <ele>811.00927734375</ele>
        <time>2012-03-27T11:47:03Z</time>
      </trkpt>
      <trkpt lat="43.7331" lon="7.0587">
        <ele>813.89331054688</ele>
        <time>2012-03-27T11:47:18Z</time>
      </trkpt>
      <trkpt lat="43.73334" lon="7.0583">
        <ele>817.25805664062</ele>
        <time>2012-03-27T11:47:35Z</time>
      </trkpt>
      <trkpt lat="43.73357" lon="7.058">
        <ele>820.14184570312</ele>
        <time>2012-03-27T11:47:50Z</time>
      </trkpt>
      <trkpt lat="43.73388" lon="7.05752">
        <ele>822.064453125</ele>
        <time>2012-03-27T11:48:12Z</time>
      </trkpt>
      <trkpt lat="43.73412" lon="7.05708">
        <ele>824.94848632812</ele>
        <time>2012-03-27T11:48:30Z</time>
      </trkpt>
      <trkpt lat="43.73439" lon="7.05682">
        <ele>826.87109375</ele>
        <time>2012-03-27T11:48:45Z</time>
      </trkpt>
      <trkpt lat="43.73454" lon="7.05634">
        <ele>827.35180664062</ele>
        <time>2012-03-27T11:49:00Z</time>
      </trkpt>
      <trkpt lat="43.73475" lon="7.05553">
        <ele>828.31323242188</ele>
        <time>2012-03-27T11:49:20Z</time>
      </trkpt>
      <trkpt lat="43.7348" lon="7.05492">
        <ele>824.94848632812</ele>
        <time>2012-03-27T11:49:30Z</time>
      </trkpt>
      <trkpt lat="43.73483" lon="7.05453">
        <ele>825.42895507812</ele>
        <time>2012-03-27T11:49:38Z</time>
      </trkpt>
      <trkpt lat="43.73483" lon="7.05448">
        <ele>824.4677734375</ele>
        <time>2012-03-27T11:49:43Z</time>
      </trkpt>
      <trkpt lat="43.73479" lon="7.05438">
        <ele>824.4677734375</ele>
        <time>2012-03-27T11:49:47Z</time>
      </trkpt>
      <trkpt lat="43.73474" lon="7.05408">
        <ele>827.83227539062</ele>
        <time>2012-03-27T11:49:57Z</time>
      </trkpt>
      <trkpt lat="43.73473" lon="7.05405">
        <ele>827.83227539062</ele>
        <time>2012-03-27T11:49:58Z</time>
      </trkpt>
      <trkpt lat="43.73468" lon="7.05361">
        <ele>830.71655273438</ele>
        <time>2012-03-27T11:50:14Z</time>
      </trkpt>
      <trkpt lat="43.73454" lon="7.05288">
        <ele>828.31323242188</ele>
        <time>2012-03-27T11:50:30Z</time>
      </trkpt>
      <trkpt lat="43.73451" lon="7.05274">
        <ele>827.35180664062</ele>
        <time>2012-03-27T11:50:32Z</time>
      </trkpt>
      <trkpt lat="43.73439" lon="7.05236">
        <ele>825.90966796875</ele>
        <time>2012-03-27T11:50:38Z</time>
      </trkpt>
      <trkpt lat="43.7343" lon="7.05182">
        <ele>827.35180664062</ele>
        <time>2012-03-27T11:50:51Z</time>
      </trkpt>
      <trkpt lat="43.73425" lon="7.05143">
        <ele>824.94848632812</ele>
        <time>2012-03-27T11:50:58Z</time>
      </trkpt>
      <trkpt lat="43.7342" lon="7.05113">
        <ele>823.50659179688</ele>
        <time>2012-03-27T11:51:02Z</time>
      </trkpt>
      <trkpt lat="43.73419" lon="7.05107">
        <ele>823.98706054688</ele>
        <time>2012-03-27T11:51:03Z</time>
      </trkpt>
      <trkpt lat="43.73413" lon="7.05048">
        <ele>825.90966796875</ele>
        <time>2012-03-27T11:51:17Z</time>
      </trkpt>
      <trkpt lat="43.73399" lon="7.05026">
        <ele>825.90966796875</ele>
        <time>2012-03-27T11:51:26Z</time>
      </trkpt>
      <trkpt lat="43.73375" lon="7.05003">
        <ele>830.23583984375</ele>
        <time>2012-03-27T11:51:41Z</time>
      </trkpt>
      <trkpt lat="43.73373" lon="7.05002">
        <ele>829.75512695312</ele>
        <time>2012-03-27T11:51:42Z</time>
      </trkpt>
      <trkpt lat="43.73352" lon="7.0499">
        <ele>833.60034179688</ele>
        <time>2012-03-27T11:51:57Z</time>
      </trkpt>
      <trkpt lat="43.73331" lon="7.04968">
        <ele>835.04248046875</ele>
        <time>2012-03-27T11:52:13Z</time>
      </trkpt>
      <trkpt lat="43.73301" lon="7.0494">
        <ele>836.484375</ele>
        <time>2012-03-27T11:52:31Z</time>
      </trkpt>
      <trkpt lat="43.73278" lon="7.04881">
        <ele>838.8876953125</ele>
        <time>2012-03-27T11:52:50Z</time>
      </trkpt>
      <trkpt lat="43.73254" lon="7.04813">
        <ele>838.8876953125</ele>
        <time>2012-03-27T11:53:10Z</time>
      </trkpt>
      <trkpt lat="43.73228" lon="7.04774">
        <ele>838.40698242188</ele>
        <time>2012-03-27T11:53:24Z</time>
      </trkpt>
      <trkpt lat="43.73179" lon="7.0475">
        <ele>838.40698242188</ele>
        <time>2012-03-27T11:53:40Z</time>
      </trkpt>
      <trkpt lat="43.73128" lon="7.04736">
        <ele>840.32958984375</ele>
        <time>2012-03-27T11:53:58Z</time>
      </trkpt>
      <trkpt lat="43.73094" lon="7.04699">
        <ele>842.25219726562</ele>
        <time>2012-03-27T11:54:14Z</time>
      </trkpt>
      <trkpt lat="43.73055" lon="7.04646">
        <ele>844.17504882812</ele>
        <time>2012-03-27T11:54:34Z</time>
      </trkpt>
      <trkpt lat="43.73016" lon="7.04601">
        <ele>846.57836914062</ele>
        <time>2012-03-27T11:54:52Z</time>
      </trkpt>
      <trkpt lat="43.72981" lon="7.04567">
        <ele>849.46215820312</ele>
        <time>2012-03-27T11:55:08Z</time>
      </trkpt>
      <trkpt lat="43.72942" lon="7.04531">
        <ele>851.86547851562</ele>
        <time>2012-03-27T11:55:26Z</time>
      </trkpt>
      <trkpt lat="43.72931" lon="7.04492">
        <ele>850.90405273438</ele>
        <time>2012-03-27T11:55:36Z</time>
      </trkpt>
      <trkpt lat="43.72941" lon="7.04422">
        <ele>850.90405273438</ele>
        <time>2012-03-27T11:55:49Z</time>
      </trkpt>
      <trkpt lat="43.72941" lon="7.04391">
        <ele>847.53955078125</ele>
        <time>2012-03-27T11:55:54Z</time>
      </trkpt>
      <trkpt lat="43.72941" lon="7.04373">
        <ele>847.05883789062</ele>
        <time>2012-03-27T11:55:56Z</time>
      </trkpt>
      <trkpt lat="43.72941" lon="7.04316">
        <ele>844.17504882812</ele>
        <time>2012-03-27T11:56:02Z</time>
      </trkpt>
      <trkpt lat="43.72942" lon="7.04284">
        <ele>842.73291015625</ele>
        <time>2012-03-27T11:56:05Z</time>
      </trkpt>
      <trkpt lat="43.72944" lon="7.04208">
        <ele>842.73291015625</ele>
        <time>2012-03-27T11:56:14Z</time>
      </trkpt>
      <trkpt lat="43.72944" lon="7.04203">
        <ele>842.73291015625</ele>
        <time>2012-03-27T11:56:15Z</time>
      </trkpt>
      <trkpt lat="43.72951" lon="7.04172">
        <ele>838.8876953125</ele>
        <time>2012-03-27T11:56:20Z</time>
      </trkpt>
      <trkpt lat="43.7295" lon="7.04146">
        <ele>836.00366210938</ele>
        <time>2012-03-27T11:56:24Z</time>
      </trkpt>
      <trkpt lat="43.72937" lon="7.04134">
        <ele>835.04248046875</ele>
        <time>2012-03-27T11:56:29Z</time>
      </trkpt>
      <trkpt lat="43.72899" lon="7.04133">
        <ele>836.96484375</ele>
        <time>2012-03-27T11:56:40Z</time>
      </trkpt>
      <trkpt lat="43.72844" lon="7.04128">
        <ele>835.52294921875</ele>
        <time>2012-03-27T11:56:57Z</time>
      </trkpt>
      <trkpt lat="43.72829" lon="7.04124">
        <ele>832.15844726562</ele>
        <time>2012-03-27T11:57:00Z</time>
      </trkpt>
      <trkpt lat="43.72817" lon="7.04118">
        <ele>829.2744140625</ele>
        <time>2012-03-27T11:57:02Z</time>
      </trkpt>
      <trkpt lat="43.72804" lon="7.04115">
        <ele>828.31323242188</ele>
        <time>2012-03-27T11:57:04Z</time>
      </trkpt>
      <trkpt lat="43.72786" lon="7.04123">
        <ele>827.83227539062</ele>
        <time>2012-03-27T11:57:07Z</time>
      </trkpt>
      <trkpt lat="43.72762" lon="7.04133">
        <ele>826.87109375</ele>
        <time>2012-03-27T11:57:11Z</time>
      </trkpt>
      <trkpt lat="43.72703" lon="7.04136">
        <ele>824.94848632812</ele>
        <time>2012-03-27T11:57:21Z</time>
      </trkpt>
      <trkpt lat="43.7264" lon="7.041">
        <ele>823.02587890625</ele>
        <time>2012-03-27T11:57:32Z</time>
      </trkpt>
      <trkpt lat="43.72618" lon="7.04095">
        <ele>822.064453125</ele>
        <time>2012-03-27T11:57:37Z</time>
      </trkpt>
      <trkpt lat="43.72596" lon="7.04084">
        <ele>820.14184570312</ele>
        <time>2012-03-27T11:57:41Z</time>
      </trkpt>
      <trkpt lat="43.72573" lon="7.04071">
        <ele>821.10327148438</ele>
        <time>2012-03-27T11:57:46Z</time>
      </trkpt>
      <trkpt lat="43.72521" lon="7.04048">
        <ele>823.50659179688</ele>
        <time>2012-03-27T11:58:02Z</time>
      </trkpt>
      <trkpt lat="43.72469" lon="7.04027">
        <ele>820.14184570312</ele>
        <time>2012-03-27T11:58:16Z</time>
      </trkpt>
      <trkpt lat="43.72447" lon="7.04006">
        <ele>820.14184570312</ele>
        <time>2012-03-27T11:58:20Z</time>
      </trkpt>
      <trkpt lat="43.72431" lon="7.03978">
        <ele>819.1806640625</ele>
        <time>2012-03-27T11:58:24Z</time>
      </trkpt>
      <trkpt lat="43.7242" lon="7.0395">
        <ele>820.14184570312</ele>
        <time>2012-03-27T11:58:28Z</time>
      </trkpt>
      <trkpt lat="43.72398" lon="7.03946">
        <ele>820.62255859375</ele>
        <time>2012-03-27T11:58:34Z</time>
      </trkpt>
      <trkpt lat="43.72345" lon="7.0399">
        <ele>822.54516601562</ele>
        <time>2012-03-27T11:58:51Z</time>
      </trkpt>
      <trkpt lat="43.72303" lon="7.03992">
        <ele>824.94848632812</ele>
        <time>2012-03-27T11:59:03Z</time>
      </trkpt>
      <trkpt lat="43.72279" lon="7.03986">
        <ele>823.98706054688</ele>
        <time>2012-03-27T11:59:10Z</time>
      </trkpt>
      <trkpt lat="43.72223" lon="7.03973">
        <ele>823.98706054688</ele>
        <time>2012-03-27T11:59:26Z</time>
      </trkpt>
      <trkpt lat="43.72215" lon="7.03968">
        <ele>823.50659179688</ele>
        <time>2012-03-27T11:59:28Z</time>
      </trkpt>
      <trkpt lat="43.72164" lon="7.03925">
        <ele>822.064453125</ele>
        <time>2012-03-27T11:59:42Z</time>
      </trkpt>
      <trkpt lat="43.72139" lon="7.03875">
        <ele>820.62255859375</ele>
        <time>2012-03-27T11:59:51Z</time>
      </trkpt>
      <trkpt lat="43.72125" lon="7.03816">
        <ele>819.66137695312</ele>
        <time>2012-03-27T12:00:01Z</time>
      </trkpt>
      <trkpt lat="43.72126" lon="7.03777">
        <ele>817.73852539062</ele>
        <time>2012-03-27T12:00:07Z</time>
      </trkpt>
      <trkpt lat="43.72128" lon="7.03753">
        <ele>817.25805664062</ele>
        <time>2012-03-27T12:00:10Z</time>
      </trkpt>
      <trkpt lat="43.72145" lon="7.03692">
        <ele>819.66137695312</ele>
        <time>2012-03-27T12:00:22Z</time>
      </trkpt>
      <trkpt lat="43.72148" lon="7.03637">
        <ele>819.66137695312</ele>
        <time>2012-03-27T12:00:34Z</time>
      </trkpt>
      <trkpt lat="43.72144" lon="7.03632">
        <ele>821.10327148438</ele>
        <time>2012-03-27T12:00:36Z</time>
      </trkpt>
      <trkpt lat="43.72113" lon="7.03587">
        <ele>824.4677734375</ele>
        <time>2012-03-27T12:00:53Z</time>
      </trkpt>
      <trkpt lat="43.72103" lon="7.03577">
        <ele>826.39038085938</ele>
        <time>2012-03-27T12:00:58Z</time>
      </trkpt>
      <trkpt lat="43.72061" lon="7.03518">
        <ele>827.83227539062</ele>
        <time>2012-03-27T12:01:18Z</time>
      </trkpt>
      <trkpt lat="43.72035" lon="7.03476">
        <ele>829.2744140625</ele>
        <time>2012-03-27T12:01:33Z</time>
      </trkpt>
      <trkpt lat="43.72032" lon="7.03425">
        <ele>832.15844726562</ele>
        <time>2012-03-27T12:01:50Z</time>
      </trkpt>
      <trkpt lat="43.72018" lon="7.03393">
        <ele>834.56176757812</ele>
        <time>2012-03-27T12:02:04Z</time>
      </trkpt>
      <trkpt lat="43.71998" lon="7.03354">
        <ele>837.92626953125</ele>
        <time>2012-03-27T12:02:21Z</time>
      </trkpt>
      <trkpt lat="43.7198" lon="7.03317">
        <ele>840.81005859375</ele>
        <time>2012-03-27T12:02:39Z</time>
      </trkpt>
      <trkpt lat="43.71969" lon="7.03295">
        <ele>844.65551757812</ele>
        <time>2012-03-27T12:02:50Z</time>
      </trkpt>
      <trkpt lat="43.71943" lon="7.03254">
        <ele>843.21337890625</ele>
        <time>2012-03-27T12:03:07Z</time>
      </trkpt>
      <trkpt lat="43.71929" lon="7.03235">
        <ele>841.29077148438</ele>
        <time>2012-03-27T12:03:12Z</time>
      </trkpt>
      <trkpt lat="43.71917" lon="7.03204">
        <ele>840.81005859375</ele>
        <time>2012-03-27T12:03:17Z</time>
      </trkpt>
      <trkpt lat="43.71915" lon="7.03138">
        <ele>841.29077148438</ele>
        <time>2012-03-27T12:03:28Z</time>
      </trkpt>
      <trkpt lat="43.71897" lon="7.03058">
        <ele>842.25219726562</ele>
        <time>2012-03-27T12:03:45Z</time>
      </trkpt>
      <trkpt lat="43.71891" lon="7.03047">
        <ele>843.69409179688</ele>
        <time>2012-03-27T12:03:49Z</time>
      </trkpt>
      <trkpt lat="43.71869" lon="7.03008">
        <ele>847.05883789062</ele>
        <time>2012-03-27T12:04:05Z</time>
      </trkpt>
      <trkpt lat="43.71846" lon="7.02971">
        <ele>849.46215820312</ele>
        <time>2012-03-27T12:04:21Z</time>
      </trkpt>
      <trkpt lat="43.71835" lon="7.02957">
        <ele>852.82666015625</ele>
        <time>2012-03-27T12:04:28Z</time>
      </trkpt>
      <trkpt lat="43.71834" lon="7.02955">
        <ele>852.82666015625</ele>
        <time>2012-03-27T12:04:29Z</time>
      </trkpt>
      <trkpt lat="43.71812" lon="7.02926">
        <ele>855.71069335938</ele>
        <time>2012-03-27T12:04:45Z</time>
      </trkpt>
      <trkpt lat="43.71778" lon="7.02874">
        <ele>856.671875</ele>
        <time>2012-03-27T12:05:03Z</time>
      </trkpt>
      <trkpt lat="43.71736" lon="7.02813">
        <ele>856.671875</ele>
        <time>2012-03-27T12:05:20Z</time>
      </trkpt>
      <trkpt lat="43.71682" lon="7.02744">
        <ele>855.71069335938</ele>
        <time>2012-03-27T12:05:38Z</time>
      </trkpt>
      <trkpt lat="43.71676" lon="7.02735">
        <ele>856.19116210938</ele>
        <time>2012-03-27T12:05:40Z</time>
      </trkpt>
      <trkpt lat="43.71668" lon="7.02703">
        <ele>855.71069335938</ele>
        <time>2012-03-27T12:05:46Z</time>
      </trkpt>
      <trkpt lat="43.71677" lon="7.02658">
        <ele>855.71069335938</ele>
        <time>2012-03-27T12:05:58Z</time>
      </trkpt>
      <trkpt lat="43.71681" lon="7.02651">
        <ele>855.22998046875</ele>
        <time>2012-03-27T12:06:00Z</time>
      </trkpt>
      <trkpt lat="43.71683" lon="7.02649">
        <ele>853.7880859375</ele>
        <time>2012-03-27T12:06:02Z</time>
      </trkpt>
      <trkpt lat="43.71697" lon="7.02641">
        <ele>852.34594726562</ele>
        <time>2012-03-27T12:06:04Z</time>
      </trkpt>
      <trkpt lat="43.7174" lon="7.02621">
        <ele>850.90405273438</ele>
        <time>2012-03-27T12:06:13Z</time>
      </trkpt>
      <trkpt lat="43.7178" lon="7.02589">
        <ele>848.9814453125</ele>
        <time>2012-03-27T12:06:23Z</time>
      </trkpt>
      <trkpt lat="43.71806" lon="7.02503">
        <ele>848.50073242188</ele>
        <time>2012-03-27T12:06:36Z</time>
      </trkpt>
      <trkpt lat="43.71811" lon="7.02407">
        <ele>848.9814453125</ele>
        <time>2012-03-27T12:06:51Z</time>
      </trkpt>
      <trkpt lat="43.71804" lon="7.02314">
        <ele>848.9814453125</ele>
        <time>2012-03-27T12:07:07Z</time>
      </trkpt>
      <trkpt lat="43.71803" lon="7.02309">
        <ele>848.50073242188</ele>
        <time>2012-03-27T12:07:15Z</time>
      </trkpt>
      <trkpt lat="43.71808" lon="7.02381">
        <ele>847.53955078125</ele>
        <time>2012-03-27T12:07:32Z</time>
      </trkpt>
      <trkpt lat="43.71804" lon="7.02067">
        <ele>848.50073242188</ele>
        <time>2012-03-27T12:07:49Z</time>
      </trkpt>
      <trkpt lat="43.7181" lon="7.0203">
        <ele>845.61694335938</ele>
        <time>2012-03-27T12:07:55Z</time>
      </trkpt>
      <trkpt lat="43.71812" lon="7.02024">
        <ele>845.61694335938</ele>
        <time>2012-03-27T12:07:56Z</time>
      </trkpt>
      <trkpt lat="43.71818" lon="7.01993">
        <ele>843.21337890625</ele>
        <time>2012-03-27T12:08:00Z</time>
      </trkpt>
      <trkpt lat="43.71841" lon="7.01901">
        <ele>842.25219726562</ele>
        <time>2012-03-27T12:08:13Z</time>
      </trkpt>
      <trkpt lat="43.71859" lon="7.01844">
        <ele>844.17504882812</ele>
        <time>2012-03-27T12:08:26Z</time>
      </trkpt>
      <trkpt lat="43.71872" lon="7.01832">
        <ele>846.09765625</ele>
        <time>2012-03-27T12:08:32Z</time>
      </trkpt>
      <trkpt lat="43.71904" lon="7.01815">
        <ele>847.05883789062</ele>
        <time>2012-03-27T12:08:46Z</time>
      </trkpt>
      <trkpt lat="43.71921" lon="7.01769">
        <ele>848.02026367188</ele>
        <time>2012-03-27T12:09:00Z</time>
      </trkpt>
      <trkpt lat="43.71919" lon="7.01732">
        <ele>849.94287109375</ele>
        <time>2012-03-27T12:09:13Z</time>
      </trkpt>
      <trkpt lat="43.71905" lon="7.01692">
        <ele>852.82666015625</ele>
        <time>2012-03-27T12:09:30Z</time>
      </trkpt>
      <trkpt lat="43.71905" lon="7.01674">
        <ele>854.26879882812</ele>
        <time>2012-03-27T12:09:38Z</time>
      </trkpt>
      <trkpt lat="43.7191" lon="7.01668">
        <ele>855.22998046875</ele>
        <time>2012-03-27T12:09:42Z</time>
      </trkpt>
      <trkpt lat="43.71915" lon="7.01666">
        <ele>858.11401367188</ele>
        <time>2012-03-27T12:09:54Z</time>
      </trkpt>
      <trkpt lat="43.71926" lon="7.01667">
        <ele>858.11401367188</ele>
        <time>2012-03-27T12:09:55Z</time>
      </trkpt>
      <trkpt lat="43.71932" lon="7.01644">
        <ele>860.51733398438</ele>
        <time>2012-03-27T12:10:07Z</time>
      </trkpt>
      <trkpt lat="43.7193" lon="7.01606">
        <ele>862.92065429688</ele>
        <time>2012-03-27T12:10:25Z</time>
      </trkpt>
      <trkpt lat="43.71927" lon="7.0157">
        <ele>864.36254882812</ele>
        <time>2012-03-27T12:10:41Z</time>
      </trkpt>
      <trkpt lat="43.71921" lon="7.01543">
        <ele>866.76586914062</ele>
        <time>2012-03-27T12:10:55Z</time>
      </trkpt>
      <trkpt lat="43.71925" lon="7.01517">
        <ele>869.64990234375</ele>
        <time>2012-03-27T12:11:08Z</time>
      </trkpt>
      <trkpt lat="43.71928" lon="7.01514">
        <ele>869.64990234375</ele>
        <time>2012-03-27T12:11:10Z</time>
      </trkpt>
      <trkpt lat="43.71961" lon="7.0151">
        <ele>871.091796875</ele>
        <time>2012-03-27T12:11:30Z</time>
      </trkpt>
      <trkpt lat="43.71979" lon="7.01456">
        <ele>871.572265625</ele>
        <time>2012-03-27T12:11:49Z</time>
      </trkpt>
      <trkpt lat="43.71989" lon="7.01396">
        <ele>873.01440429688</ele>
        <time>2012-03-27T12:12:07Z</time>
      </trkpt>
      <trkpt lat="43.71978" lon="7.01319">
        <ele>874.93701171875</ele>
        <time>2012-03-27T12:12:30Z</time>
      </trkpt>
      <trkpt lat="43.71969" lon="7.01271">
        <ele>876.85986328125</ele>
        <time>2012-03-27T12:12:47Z</time>
      </trkpt>
      <trkpt lat="43.71987" lon="7.01222">
        <ele>877.82104492188</ele>
        <time>2012-03-27T12:13:05Z</time>
      </trkpt>
      <trkpt lat="43.72002" lon="7.01169">
        <ele>879.26293945312</ele>
        <time>2012-03-27T12:13:22Z</time>
      </trkpt>
      <trkpt lat="43.72019" lon="7.01097">
        <ele>880.22436523438</ele>
        <time>2012-03-27T12:13:40Z</time>
      </trkpt>
      <trkpt lat="43.72028" lon="7.01074">
        <ele>880.705078125</ele>
        <time>2012-03-27T12:13:54Z</time>
      </trkpt>
      <trkpt lat="43.72028" lon="7.01074">
        <ele>881.18579101562</ele>
        <time>2012-03-27T12:14:11Z</time>
      </trkpt>
      <trkpt lat="43.72033" lon="7.01071">
        <ele>881.18579101562</ele>
        <time>2012-03-27T12:14:26Z</time>
      </trkpt>
      <trkpt lat="43.72037" lon="7.01035">
        <ele>879.74365234375</ele>
        <time>2012-03-27T12:14:33Z</time>
      </trkpt>
      <trkpt lat="43.7205" lon="7.01024">
        <ele>877.82104492188</ele>
        <time>2012-03-27T12:14:37Z</time>
      </trkpt>
      <trkpt lat="43.72057" lon="7.01022">
        <ele>877.82104492188</ele>
        <time>2012-03-27T12:14:39Z</time>
      </trkpt>
      <trkpt lat="43.72064" lon="7.01028">
        <ele>876.37915039062</ele>
        <time>2012-03-27T12:14:42Z</time>
      </trkpt>
      <trkpt lat="43.72074" lon="7.01031">
        <ele>873.9755859375</ele>
        <time>2012-03-27T12:14:45Z</time>
      </trkpt>
      <trkpt lat="43.72091" lon="7.01026">
        <ele>870.61108398438</ele>
        <time>2012-03-27T12:14:53Z</time>
      </trkpt>
      <trkpt lat="43.72102" lon="7.01051">
        <ele>867.72705078125</ele>
        <time>2012-03-27T12:14:59Z</time>
      </trkpt>
      <trkpt lat="43.72131" lon="7.01066">
        <ele>866.28515625</ele>
        <time>2012-03-27T12:15:05Z</time>
      </trkpt>
      <trkpt lat="43.72175" lon="7.01076">
        <ele>867.24658203125</ele>
        <time>2012-03-27T12:15:19Z</time>
      </trkpt>
      <trkpt lat="43.72195" lon="7.01108">
        <ele>864.36254882812</ele>
        <time>2012-03-27T12:15:29Z</time>
      </trkpt>
      <trkpt lat="43.72202" lon="7.01098">
        <ele>860.998046875</ele>
        <time>2012-03-27T12:15:35Z</time>
      </trkpt>
      <trkpt lat="43.72215" lon="7.01082">
        <ele>858.59448242188</ele>
        <time>2012-03-27T12:15:39Z</time>
      </trkpt>
      <trkpt lat="43.72241" lon="7.01076">
        <ele>856.19116210938</ele>
        <time>2012-03-27T12:15:44Z</time>
      </trkpt>
      <trkpt lat="43.72247" lon="7.01073">
        <ele>855.71069335938</ele>
        <time>2012-03-27T12:15:45Z</time>
      </trkpt>
      <trkpt lat="43.72265" lon="7.01058">
        <ele>855.22998046875</ele>
        <time>2012-03-27T12:15:49Z</time>
      </trkpt>
      <trkpt lat="43.72269" lon="7.01047">
        <ele>852.34594726562</ele>
        <time>2012-03-27T12:15:53Z</time>
      </trkpt>
      <trkpt lat="43.72277" lon="7.01031">
        <ele>848.50073242188</ele>
        <time>2012-03-27T12:16:00Z</time>
      </trkpt>
      <trkpt lat="43.72282" lon="7.01032">
        <ele>846.57836914062</ele>
        <time>2012-03-27T12:16:01Z</time>
      </trkpt>
      <trkpt lat="43.72301" lon="7.0104">
        <ele>844.17504882812</ele>
        <time>2012-03-27T12:16:04Z</time>
      </trkpt>
      <trkpt lat="43.72332" lon="7.01043">
        <ele>843.21337890625</ele>
        <time>2012-03-27T12:16:13Z</time>
      </trkpt>
      <trkpt lat="43.72358" lon="7.0104">
        <ele>842.73291015625</ele>
        <time>2012-03-27T12:16:22Z</time>
      </trkpt>
      <trkpt lat="43.72372" lon="7.01017">
        <ele>840.81005859375</ele>
        <time>2012-03-27T12:16:33Z</time>
      </trkpt>
      <trkpt lat="43.72373" lon="7.01013">
        <ele>840.81005859375</ele>
        <time>2012-03-27T12:16:34Z</time>
      </trkpt>
      <trkpt lat="43.72383" lon="7.00998">
        <ele>835.04248046875</ele>
        <time>2012-03-27T12:16:44Z</time>
      </trkpt>
      <trkpt lat="43.72383" lon="7.00998">
        <ele>843.21337890625</ele>
        <time>2012-03-27T12:16:45Z</time>
      </trkpt>
      <trkpt lat="43.72383" lon="7.00998">
        <ele>840.32958984375</ele>
        <time>2012-03-27T12:16:46Z</time>
      </trkpt>
      <trkpt lat="43.72383" lon="7.00998">
        <ele>840.32958984375</ele>
        <time>2012-03-27T12:16:58Z</time>
      </trkpt>
      <trkpt lat="43.72383" lon="7.00998">
        <ele>841.771484375</ele>
        <time>2012-03-27T12:17:13Z</time>
      </trkpt>
      <trkpt lat="43.72383" lon="7.00998">
        <ele>841.771484375</ele>
        <time>2012-03-27T12:17:28Z</time>
      </trkpt>
      <trkpt lat="43.72407" lon="7.00969">
        <ele>842.25219726562</ele>
        <time>2012-03-27T12:17:41Z</time>
      </trkpt>
      <trkpt lat="43.72435" lon="7.00968">
        <ele>842.73291015625</ele>
        <time>2012-03-27T12:17:53Z</time>
      </trkpt>
      <trkpt lat="43.72451" lon="7.00958">
        <ele>846.09765625</ele>
        <time>2012-03-27T12:18:02Z</time>
      </trkpt>
      <trkpt lat="43.72463" lon="7.00946">
        <ele>848.9814453125</ele>
        <time>2012-03-27T12:18:11Z</time>
      </trkpt>
      <trkpt lat="43.72485" lon="7.00935">
        <ele>852.34594726562</ele>
        <time>2012-03-27T12:18:23Z</time>
      </trkpt>
      <trkpt lat="43.72514" lon="7.0091">
        <ele>850.42358398438</ele>
        <time>2012-03-27T12:18:35Z</time>
      </trkpt>
      <trkpt lat="43.72532" lon="7.00884">
        <ele>848.02026367188</ele>
        <time>2012-03-27T12:18:47Z</time>
      </trkpt>
      <trkpt lat="43.72556" lon="7.00868">
        <ele>847.53955078125</ele>
        <time>2012-03-27T12:19:01Z</time>
      </trkpt>
      <trkpt lat="43.72581" lon="7.00867">
        <ele>850.90405273438</ele>
        <time>2012-03-27T12:19:15Z</time>
      </trkpt>
      <trkpt lat="43.72583" lon="7.00865">
        <ele>850.90405273438</ele>
        <time>2012-03-27T12:19:17Z</time>
      </trkpt>
      <trkpt lat="43.72587" lon="7.00861">
        <ele>851.384765625</ele>
        <time>2012-03-27T12:19:21Z</time>
      </trkpt>
      <trkpt lat="43.72611" lon="7.00844">
        <ele>850.42358398438</ele>
        <time>2012-03-27T12:19:36Z</time>
      </trkpt>
      <trkpt lat="43.72625" lon="7.00849">
        <ele>851.86547851562</ele>
        <time>2012-03-27T12:19:43Z</time>
      </trkpt>
      <trkpt lat="43.72632" lon="7.00863">
        <ele>853.7880859375</ele>
        <time>2012-03-27T12:19:50Z</time>
      </trkpt>
      <trkpt lat="43.72648" lon="7.00903">
        <ele>855.22998046875</ele>
        <time>2012-03-27T12:20:07Z</time>
      </trkpt>
      <trkpt lat="43.72648" lon="7.00906">
        <ele>855.71069335938</ele>
        <time>2012-03-27T12:20:08Z</time>
      </trkpt>
      <trkpt lat="43.72673" lon="7.00918">
        <ele>855.22998046875</ele>
        <time>2012-03-27T12:20:22Z</time>
      </trkpt>
      <trkpt lat="43.72674" lon="7.00919">
        <ele>854.74926757812</ele>
        <time>2012-03-27T12:20:32Z</time>
      </trkpt>
      <trkpt lat="43.72674" lon="7.00919">
        <ele>854.74926757812</ele>
        <time>2012-03-27T12:20:34Z</time>
      </trkpt>
      <trkpt lat="43.72674" lon="7.00919">
        <ele>855.22998046875</ele>
        <time>2012-03-27T12:20:49Z</time>
      </trkpt>
      <trkpt lat="43.72674" lon="7.00919">
        <ele>855.22998046875</ele>
        <time>2012-03-27T12:21:19Z</time>
      </trkpt>
      <trkpt lat="43.72674" lon="7.00919">
        <ele>856.19116210938</ele>
        <time>2012-03-27T12:21:54Z</time>
      </trkpt>
      <trkpt lat="43.72674" lon="7.00919">
        <ele>858.11401367188</ele>
        <time>2012-03-27T12:22:08Z</time>
      </trkpt>
      <trkpt lat="43.72674" lon="7.00919">
        <ele>860.03662109375</ele>
        <time>2012-03-27T12:22:25Z</time>
      </trkpt>
      <trkpt lat="43.72711" lon="7.00941">
        <ele>861.47875976562</ele>
        <time>2012-03-27T12:22:40Z</time>
      </trkpt>
      <trkpt lat="43.72711" lon="7.00941">
        <ele>860.51733398438</ele>
        <time>2012-03-27T12:22:54Z</time>
      </trkpt>
      <trkpt lat="43.72711" lon="7.00941">
        <ele>863.4013671875</ele>
        <time>2012-03-27T12:23:11Z</time>
      </trkpt>
      <trkpt lat="43.72711" lon="7.00941">
        <ele>864.36254882812</ele>
        <time>2012-03-27T12:23:26Z</time>
      </trkpt>
      <trkpt lat="43.72711" lon="7.00941">
        <ele>866.76586914062</ele>
        <time>2012-03-27T12:23:36Z</time>
      </trkpt>
      <trkpt lat="43.72711" lon="7.00941">
        <ele>867.24658203125</ele>
        <time>2012-03-27T12:23:56Z</time>
      </trkpt>
      <trkpt lat="43.72711" lon="7.00941">
        <ele>867.24658203125</ele>
        <time>2012-03-27T12:24:13Z</time>
      </trkpt>
      <trkpt lat="43.72711" lon="7.00941">
        <ele>868.20776367188</ele>
        <time>2012-03-27T12:24:23Z</time>
      </trkpt>
      <trkpt lat="43.72711" lon="7.00941">
        <ele>870.61108398438</ele>
        <time>2012-03-27T12:24:41Z</time>
      </trkpt>
      <trkpt lat="43.72711" lon="7.00941">
        <ele>872.05297851562</ele>
        <time>2012-03-27T12:24:44Z</time>
      </trkpt>
      <trkpt lat="43.72711" lon="7.00941">
        <ele>874.93701171875</ele>
        <time>2012-03-27T12:24:59Z</time>
      </trkpt>
      <trkpt lat="43.72798" lon="7.00906">
        <ele>876.85986328125</ele>
        <time>2012-03-27T12:25:18Z</time>
      </trkpt>
      <trkpt lat="43.728" lon="7.00892">
        <ele>880.705078125</ele>
        <time>2012-03-27T12:25:29Z</time>
      </trkpt>
      <trkpt lat="43.728" lon="7.00891">
        <ele>880.22436523438</ele>
        <time>2012-03-27T12:25:30Z</time>
      </trkpt>
      <trkpt lat="43.72807" lon="7.00883">
        <ele>881.66625976562</ele>
        <time>2012-03-27T12:25:40Z</time>
      </trkpt>
      <trkpt lat="43.72815" lon="7.00881">
        <ele>883.10815429688</ele>
        <time>2012-03-27T12:25:54Z</time>
      </trkpt>
      <trkpt lat="43.72839" lon="7.00893">
        <ele>885.9921875</ele>
        <time>2012-03-27T12:26:10Z</time>
      </trkpt>
      <trkpt lat="43.72865" lon="7.00928">
        <ele>885.9921875</ele>
        <time>2012-03-27T12:26:25Z</time>
      </trkpt>
      <trkpt lat="43.729" lon="7.00938">
        <ele>886.47290039062</ele>
        <time>2012-03-27T12:26:42Z</time>
      </trkpt>
      <trkpt lat="43.72923" lon="7.00941">
        <ele>886.95336914062</ele>
        <time>2012-03-27T12:26:54Z</time>
      </trkpt>
      <trkpt lat="43.72963" lon="7.00947">
        <ele>886.95336914062</ele>
        <time>2012-03-27T12:27:11Z</time>
      </trkpt>
      <trkpt lat="43.72967" lon="7.00945">
        <ele>886.95336914062</ele>
        <time>2012-03-27T12:27:22Z</time>
      </trkpt>
      <trkpt lat="43.72963" lon="7.00944">
        <ele>885.9921875</ele>
        <time>2012-03-27T12:28:24Z</time>
      </trkpt>
      <trkpt lat="43.72964" lon="7.00944">
        <ele>885.51147460938</ele>
        <time>2012-03-27T12:28:25Z</time>
      </trkpt>
      <trkpt lat="43.72981" lon="7.0095">
        <ele>884.06958007812</ele>
        <time>2012-03-27T12:28:34Z</time>
      </trkpt>
      <trkpt lat="43.72989" lon="7.00969">
        <ele>883.10815429688</ele>
        <time>2012-03-27T12:28:40Z</time>
      </trkpt>
      <trkpt lat="43.72999" lon="7.01002">
        <ele>879.74365234375</ele>
        <time>2012-03-27T12:28:48Z</time>
      </trkpt>
      <trkpt lat="43.73002" lon="7.01011">
        <ele>878.78247070312</ele>
        <time>2012-03-27T12:28:50Z</time>
      </trkpt>
      <trkpt lat="43.73011" lon="7.01043">
        <ele>874.93701171875</ele>
        <time>2012-03-27T12:28:57Z</time>
      </trkpt>
      <trkpt lat="43.73025" lon="7.01092">
        <ele>873.4951171875</ele>
        <time>2012-03-27T12:29:08Z</time>
      </trkpt>
      <trkpt lat="43.73027" lon="7.01098">
        <ele>872.53369140625</ele>
        <time>2012-03-27T12:29:10Z</time>
      </trkpt>
      <trkpt lat="43.73028" lon="7.01105">
        <ele>871.091796875</ele>
        <time>2012-03-27T12:29:12Z</time>
      </trkpt>
      <trkpt lat="43.73028" lon="7.01109">
        <ele>870.61108398438</ele>
        <time>2012-03-27T12:29:14Z</time>
      </trkpt>
      <trkpt lat="43.73029" lon="7.0111">
        <ele>871.091796875</ele>
        <time>2012-03-27T12:29:28Z</time>
      </trkpt>
      <trkpt lat="43.73029" lon="7.0111">
        <ele>870.13037109375</ele>
        <time>2012-03-27T12:29:52Z</time>
      </trkpt>
      <trkpt lat="43.73029" lon="7.0111">
        <ele>870.13037109375</ele>
        <time>2012-03-27T12:33:34Z</time>
      </trkpt>
      <trkpt lat="43.73017" lon="7.01128">
        <ele>867.24658203125</ele>
        <time>2012-03-27T12:33:39Z</time>
      </trkpt>
      <trkpt lat="43.73005" lon="7.0114">
        <ele>865.32397460938</ele>
        <time>2012-03-27T12:33:42Z</time>
      </trkpt>
      <trkpt lat="43.72999" lon="7.01163">
        <ele>864.36254882812</ele>
        <time>2012-03-27T12:33:46Z</time>
      </trkpt>
      <trkpt lat="43.73001" lon="7.01168">
        <ele>865.8046875</ele>
        <time>2012-03-27T12:33:48Z</time>
      </trkpt>
      <trkpt lat="43.73023" lon="7.01192">
        <ele>866.28515625</ele>
        <time>2012-03-27T12:33:59Z</time>
      </trkpt>
      <trkpt lat="43.73054" lon="7.01207">
        <ele>868.20776367188</ele>
        <time>2012-03-27T12:34:11Z</time>
      </trkpt>
      <trkpt lat="43.7307" lon="7.01224">
        <ele>868.20776367188</ele>
        <time>2012-03-27T12:34:18Z</time>
      </trkpt>
      <trkpt lat="43.73097" lon="7.01265">
        <ele>868.20776367188</ele>
        <time>2012-03-27T12:34:29Z</time>
      </trkpt>
      <trkpt lat="43.73103" lon="7.01281">
        <ele>866.28515625</ele>
        <time>2012-03-27T12:34:34Z</time>
      </trkpt>
      <trkpt lat="43.73112" lon="7.01294">
        <ele>865.8046875</ele>
        <time>2012-03-27T12:34:38Z</time>
      </trkpt>
      <trkpt lat="43.73139" lon="7.01309">
        <ele>865.32397460938</ele>
        <time>2012-03-27T12:34:45Z</time>
      </trkpt>
      <trkpt lat="43.73149" lon="7.0131">
        <ele>865.8046875</ele>
        <time>2012-03-27T12:34:47Z</time>
      </trkpt>
      <trkpt lat="43.73156" lon="7.01311">
        <ele>864.36254882812</ele>
        <time>2012-03-27T12:34:49Z</time>
      </trkpt>
      <trkpt lat="43.7317" lon="7.01321">
        <ele>861.95947265625</ele>
        <time>2012-03-27T12:34:53Z</time>
      </trkpt>
      <trkpt lat="43.73175" lon="7.01328">
        <ele>860.03662109375</ele>
        <time>2012-03-27T12:34:55Z</time>
      </trkpt>
      <trkpt lat="43.73185" lon="7.01341">
        <ele>858.59448242188</ele>
        <time>2012-03-27T12:35:06Z</time>
      </trkpt>
      <trkpt lat="43.73185" lon="7.01341">
        <ele>858.59448242188</ele>
        <time>2012-03-27T12:35:15Z</time>
      </trkpt>
      <trkpt lat="43.73196" lon="7.0136">
        <ele>856.19116210938</ele>
        <time>2012-03-27T12:35:20Z</time>
      </trkpt>
      <trkpt lat="43.73215" lon="7.01391">
        <ele>852.82666015625</ele>
        <time>2012-03-27T12:35:25Z</time>
      </trkpt>
      <trkpt lat="43.73227" lon="7.01411">
        <ele>848.9814453125</ele>
        <time>2012-03-27T12:35:28Z</time>
      </trkpt>
      <trkpt lat="43.73263" lon="7.01441">
        <ele>848.50073242188</ele>
        <time>2012-03-27T12:35:34Z</time>
      </trkpt>
      <trkpt lat="43.73311" lon="7.01484">
        <ele>848.9814453125</ele>
        <time>2012-03-27T12:35:47Z</time>
      </trkpt>
      <trkpt lat="43.73314" lon="7.01488">
        <ele>848.9814453125</ele>
        <time>2012-03-27T12:35:48Z</time>
      </trkpt>
      <trkpt lat="43.73341" lon="7.01527">
        <ele>846.57836914062</ele>
        <time>2012-03-27T12:35:56Z</time>
      </trkpt>
      <trkpt lat="43.73356" lon="7.01547">
        <ele>847.05883789062</ele>
        <time>2012-03-27T12:36:00Z</time>
      </trkpt>
      <trkpt lat="43.73416" lon="7.01596">
        <ele>847.53955078125</ele>
        <time>2012-03-27T12:36:16Z</time>
      </trkpt>
      <trkpt lat="43.73454" lon="7.0163">
        <ele>844.17504882812</ele>
        <time>2012-03-27T12:36:25Z</time>
      </trkpt>
      <trkpt lat="43.73503" lon="7.01675">
        <ele>846.09765625</ele>
        <time>2012-03-27T12:36:40Z</time>
      </trkpt>
      <trkpt lat="43.73528" lon="7.01706">
        <ele>848.9814453125</ele>
        <time>2012-03-27T12:36:50Z</time>
      </trkpt>
      <trkpt lat="43.73537" lon="7.01726">
        <ele>847.53955078125</ele>
        <time>2012-03-27T12:36:56Z</time>
      </trkpt>
      <trkpt lat="43.73539" lon="7.01754">
        <ele>845.13623046875</ele>
        <time>2012-03-27T12:37:00Z</time>
      </trkpt>
      <trkpt lat="43.73544" lon="7.01771">
        <ele>844.65551757812</ele>
        <time>2012-03-27T12:37:05Z</time>
      </trkpt>
      <trkpt lat="43.7357" lon="7.01789">
        <ele>843.69409179688</ele>
        <time>2012-03-27T12:37:10Z</time>
      </trkpt>
      <trkpt lat="43.7358" lon="7.01786">
        <ele>843.69409179688</ele>
        <time>2012-03-27T12:37:14Z</time>
      </trkpt>
      <trkpt lat="43.7359" lon="7.01772">
        <ele>842.73291015625</ele>
        <time>2012-03-27T12:37:20Z</time>
      </trkpt>
      <trkpt lat="43.73597" lon="7.01769">
        <ele>844.17504882812</ele>
        <time>2012-03-27T12:37:24Z</time>
      </trkpt>
      <trkpt lat="43.73629" lon="7.01788">
        <ele>843.21337890625</ele>
        <time>2012-03-27T12:37:36Z</time>
      </trkpt>
      <trkpt lat="43.73636" lon="7.01793">
        <ele>842.73291015625</ele>
        <time>2012-03-27T12:37:38Z</time>
      </trkpt>
      <trkpt lat="43.73661" lon="7.01801">
        <ele>842.25219726562</ele>
        <time>2012-03-27T12:37:43Z</time>
      </trkpt>
      <trkpt lat="43.73715" lon="7.01788">
        <ele>842.73291015625</ele>
        <time>2012-03-27T12:37:57Z</time>
      </trkpt>
      <trkpt lat="43.73755" lon="7.01786">
        <ele>844.65551757812</ele>
        <time>2012-03-27T12:38:10Z</time>
      </trkpt>
      <trkpt lat="43.73776" lon="7.01786">
        <ele>847.53955078125</ele>
        <time>2012-03-27T12:38:18Z</time>
      </trkpt>
      <trkpt lat="43.73808" lon="7.01785">
        <ele>847.53955078125</ele>
        <time>2012-03-27T12:38:29Z</time>
      </trkpt>
      <trkpt lat="43.7382" lon="7.01783">
        <ele>847.05883789062</ele>
        <time>2012-03-27T12:38:34Z</time>
      </trkpt>
      <trkpt lat="43.73863" lon="7.0178">
        <ele>848.02026367188</ele>
        <time>2012-03-27T12:38:50Z</time>
      </trkpt>
      <trkpt lat="43.73892" lon="7.01777">
        <ele>850.90405273438</ele>
        <time>2012-03-27T12:39:05Z</time>
      </trkpt>
      <trkpt lat="43.73902" lon="7.01775">
        <ele>852.34594726562</ele>
        <time>2012-03-27T12:39:11Z</time>
      </trkpt>
      <trkpt lat="43.73909" lon="7.01774">
        <ele>853.30737304688</ele>
        <time>2012-03-27T12:39:15Z</time>
      </trkpt>
      <trkpt lat="43.7394" lon="7.01768">
        <ele>855.22998046875</ele>
        <time>2012-03-27T12:39:32Z</time>
      </trkpt>
      <trkpt lat="43.73978" lon="7.01776">
        <ele>856.19116210938</ele>
        <time>2012-03-27T12:39:52Z</time>
      </trkpt>
      <trkpt lat="43.74016" lon="7.01788">
        <ele>857.63330078125</ele>
        <time>2012-03-27T12:40:12Z</time>
      </trkpt>
      <trkpt lat="43.74041" lon="7.01798">
        <ele>860.51733398438</ele>
        <time>2012-03-27T12:40:26Z</time>
      </trkpt>
      <trkpt lat="43.74079" lon="7.01811">
        <ele>861.47875976562</ele>
        <time>2012-03-27T12:40:45Z</time>
      </trkpt>
      <trkpt lat="43.74119" lon="7.01816">
        <ele>862.43994140625</ele>
        <time>2012-03-27T12:41:02Z</time>
      </trkpt>
      <trkpt lat="43.74159" lon="7.01803">
        <ele>863.4013671875</ele>
        <time>2012-03-27T12:41:20Z</time>
      </trkpt>
      <trkpt lat="43.7419" lon="7.01794">
        <ele>865.8046875</ele>
        <time>2012-03-27T12:41:34Z</time>
      </trkpt>
      <trkpt lat="43.7422" lon="7.01787">
        <ele>868.20776367188</ele>
        <time>2012-03-27T12:41:50Z</time>
      </trkpt>
      <trkpt lat="43.74238" lon="7.0178">
        <ele>872.05297851562</ele>
        <time>2012-03-27T12:42:01Z</time>
      </trkpt>
      <trkpt lat="43.74278" lon="7.01772">
        <ele>873.4951171875</ele>
        <time>2012-03-27T12:42:22Z</time>
      </trkpt>
      <trkpt lat="43.74316" lon="7.01754">
        <ele>873.01440429688</ele>
        <time>2012-03-27T12:42:42Z</time>
      </trkpt>
      <trkpt lat="43.74348" lon="7.01736">
        <ele>874.93701171875</ele>
        <time>2012-03-27T12:42:59Z</time>
      </trkpt>
      <trkpt lat="43.74375" lon="7.01706">
        <ele>876.85986328125</ele>
        <time>2012-03-27T12:43:18Z</time>
      </trkpt>
      <trkpt lat="43.74409" lon="7.01679">
        <ele>877.82104492188</ele>
        <time>2012-03-27T12:43:37Z</time>
      </trkpt>
      <trkpt lat="43.7444" lon="7.01648">
        <ele>879.26293945312</ele>
        <time>2012-03-27T12:43:56Z</time>
      </trkpt>
      <trkpt lat="43.74442" lon="7.01647">
        <ele>879.26293945312</ele>
        <time>2012-03-27T12:43:57Z</time>
      </trkpt>
      <trkpt lat="43.74477" lon="7.01608">
        <ele>879.74365234375</ele>
        <time>2012-03-27T12:44:16Z</time>
      </trkpt>
      <trkpt lat="43.74504" lon="7.01581">
        <ele>883.10815429688</ele>
        <time>2012-03-27T12:44:35Z</time>
      </trkpt>
      <trkpt lat="43.74533" lon="7.01554">
        <ele>884.06958007812</ele>
        <time>2012-03-27T12:44:52Z</time>
      </trkpt>
      <trkpt lat="43.74561" lon="7.01539">
        <ele>885.03100585938</ele>
        <time>2012-03-27T12:45:06Z</time>
      </trkpt>
      <trkpt lat="43.74597" lon="7.01529">
        <ele>885.51147460938</ele>
        <time>2012-03-27T12:45:24Z</time>
      </trkpt>
      <trkpt lat="43.74629" lon="7.01524">
        <ele>887.43408203125</ele>
        <time>2012-03-27T12:45:41Z</time>
      </trkpt>
      <trkpt lat="43.74649" lon="7.01514">
        <ele>888.87622070312</ele>
        <time>2012-03-27T12:45:53Z</time>
      </trkpt>
      <trkpt lat="43.74657" lon="7.0151">
        <ele>889.83740234375</ele>
        <time>2012-03-27T12:45:58Z</time>
      </trkpt>
      <trkpt lat="43.74676" lon="7.01486">
        <ele>893.68286132812</ele>
        <time>2012-03-27T12:46:14Z</time>
      </trkpt>
      <trkpt lat="43.74695" lon="7.0146">
        <ele>895.60546875</ele>
        <time>2012-03-27T12:46:30Z</time>
      </trkpt>
      <trkpt lat="43.7471" lon="7.01432">
        <ele>897.04736328125</ele>
        <time>2012-03-27T12:46:45Z</time>
      </trkpt>
      <trkpt lat="43.74719" lon="7.01414">
        <ele>897.04736328125</ele>
        <time>2012-03-27T12:47:01Z</time>
      </trkpt>
      <trkpt lat="43.74719" lon="7.01414">
        <ele>898.96997070312</ele>
        <time>2012-03-27T12:47:54Z</time>
      </trkpt>
      <trkpt lat="43.74719" lon="7.01414">
        <ele>899.93139648438</ele>
        <time>2012-03-27T12:48:13Z</time>
      </trkpt>
      <trkpt lat="43.74719" lon="7.01414">
        <ele>900.412109375</ele>
        <time>2012-03-27T12:48:39Z</time>
      </trkpt>
      <trkpt lat="43.74731" lon="7.01401">
        <ele>899.93139648438</ele>
        <time>2012-03-27T12:48:46Z</time>
      </trkpt>
      <trkpt lat="43.74739" lon="7.01399">
        <ele>899.45068359375</ele>
        <time>2012-03-27T12:48:50Z</time>
      </trkpt>
      <trkpt lat="43.74766" lon="7.01428">
        <ele>898.4892578125</ele>
        <time>2012-03-27T12:49:05Z</time>
      </trkpt>
      <trkpt lat="43.74787" lon="7.01453">
        <ele>898.96997070312</ele>
        <time>2012-03-27T12:49:18Z</time>
      </trkpt>
      <trkpt lat="43.74797" lon="7.01461">
        <ele>899.45068359375</ele>
        <time>2012-03-27T12:49:24Z</time>
      </trkpt>
      <trkpt lat="43.74823" lon="7.01496">
        <ele>898.0087890625</ele>
        <time>2012-03-27T12:49:38Z</time>
      </trkpt>
      <trkpt lat="43.74845" lon="7.01536">
        <ele>898.4892578125</ele>
        <time>2012-03-27T12:49:53Z</time>
      </trkpt>
      <trkpt lat="43.74862" lon="7.01555">
        <ele>901.85400390625</ele>
        <time>2012-03-27T12:50:06Z</time>
      </trkpt>
      <trkpt lat="43.74862" lon="7.01555">
        <ele>902.33447265625</ele>
        <time>2012-03-27T12:50:26Z</time>
      </trkpt>
      <trkpt lat="43.74877" lon="7.01568">
        <ele>902.33447265625</ele>
        <time>2012-03-27T12:50:40Z</time>
      </trkpt>
      <trkpt lat="43.7488" lon="7.01569">
        <ele>903.2958984375</ele>
        <time>2012-03-27T12:50:42Z</time>
      </trkpt>
      <trkpt lat="43.74894" lon="7.01576">
        <ele>905.69921875</ele>
        <time>2012-03-27T12:50:55Z</time>
      </trkpt>
      <trkpt lat="43.74894" lon="7.01576">
        <ele>907.14111328125</ele>
        <time>2012-03-27T12:51:15Z</time>
      </trkpt>
      <trkpt lat="43.74894" lon="7.01576">
        <ele>907.62182617188</ele>
        <time>2012-03-27T12:51:19Z</time>
      </trkpt>
      <trkpt lat="43.74894" lon="7.01576">
        <ele>909.54467773438</ele>
        <time>2012-03-27T12:51:36Z</time>
      </trkpt>
      <trkpt lat="43.74894" lon="7.01576">
        <ele>910.98657226562</ele>
        <time>2012-03-27T12:51:52Z</time>
      </trkpt>
      <trkpt lat="43.74894" lon="7.01576">
        <ele>912.9091796875</ele>
        <time>2012-03-27T12:52:07Z</time>
      </trkpt>
      <trkpt lat="43.74894" lon="7.01576">
        <ele>914.83178710938</ele>
        <time>2012-03-27T12:52:23Z</time>
      </trkpt>
      <trkpt lat="43.74894" lon="7.01576">
        <ele>916.27368164062</ele>
        <time>2012-03-27T12:52:38Z</time>
      </trkpt>
      <trkpt lat="43.74894" lon="7.01576">
        <ele>916.75439453125</ele>
        <time>2012-03-27T12:52:57Z</time>
      </trkpt>
      <trkpt lat="43.74894" lon="7.01576">
        <ele>917.71557617188</ele>
        <time>2012-03-27T12:53:10Z</time>
      </trkpt>
      <trkpt lat="43.74981" lon="7.0161">
        <ele>921.08032226562</ele>
        <time>2012-03-27T12:53:25Z</time>
      </trkpt>
      <trkpt lat="43.74981" lon="7.0161">
        <ele>923.0029296875</ele>
        <time>2012-03-27T12:53:44Z</time>
      </trkpt>
      <trkpt lat="43.74981" lon="7.0161">
        <ele>926.36767578125</ele>
        <time>2012-03-27T12:53:59Z</time>
      </trkpt>
      <trkpt lat="43.74981" lon="7.0161">
        <ele>926.84838867188</ele>
        <time>2012-03-27T12:54:11Z</time>
      </trkpt>
      <trkpt lat="43.74981" lon="7.0161">
        <ele>928.77099609375</ele>
        <time>2012-03-27T12:54:30Z</time>
      </trkpt>
      <trkpt lat="43.74981" lon="7.0161">
        <ele>930.212890625</ele>
        <time>2012-03-27T12:54:47Z</time>
      </trkpt>
      <trkpt lat="43.74981" lon="7.0161">
        <ele>933.0966796875</ele>
        <time>2012-03-27T12:55:08Z</time>
      </trkpt>
      <trkpt lat="43.75074" lon="7.0163">
        <ele>935.5</ele>
        <time>2012-03-27T12:55:26Z</time>
      </trkpt>
      <trkpt lat="43.75076" lon="7.0163">
        <ele>935.98071289062</ele>
        <time>2012-03-27T12:55:49Z</time>
      </trkpt>
      <trkpt lat="43.75084" lon="7.01629">
        <ele>936.94189453125</ele>
        <time>2012-03-27T12:56:20Z</time>
      </trkpt>
      <trkpt lat="43.75091" lon="7.01619">
        <ele>939.82592773438</ele>
        <time>2012-03-27T12:56:34Z</time>
      </trkpt>
      <trkpt lat="43.75096" lon="7.01614">
        <ele>942.71020507812</ele>
        <time>2012-03-27T12:56:45Z</time>
      </trkpt>
      <trkpt lat="43.75099" lon="7.01611">
        <ele>943.19067382812</ele>
        <time>2012-03-27T12:57:01Z</time>
      </trkpt>
      <trkpt lat="43.751" lon="7.0161">
        <ele>941.26806640625</ele>
        <time>2012-03-27T12:58:06Z</time>
      </trkpt>
      <trkpt lat="43.75101" lon="7.01607">
        <ele>941.74877929688</ele>
        <time>2012-03-27T12:59:21Z</time>
      </trkpt>
      <trkpt lat="43.751" lon="7.01607">
        <ele>943.19067382812</ele>
        <time>2012-03-27T13:00:01Z</time>
      </trkpt>
      <trkpt lat="43.75106" lon="7.01605">
        <ele>943.67138671875</ele>
        <time>2012-03-27T13:00:22Z</time>
      </trkpt>
      <trkpt lat="43.7513" lon="7.01614">
        <ele>944.15209960938</ele>
        <time>2012-03-27T13:00:36Z</time>
      </trkpt>
      <trkpt lat="43.75179" lon="7.01643">
        <ele>942.71020507812</ele>
        <time>2012-03-27T13:00:53Z</time>
      </trkpt>
      <trkpt lat="43.75225" lon="7.01688">
        <ele>942.71020507812</ele>
        <time>2012-03-27T13:01:11Z</time>
      </trkpt>
      <trkpt lat="43.75267" lon="7.01725">
        <ele>943.19067382812</ele>
        <time>2012-03-27T13:01:27Z</time>
      </trkpt>
      <trkpt lat="43.75293" lon="7.01748">
        <ele>946.07470703125</ele>
        <time>2012-03-27T13:01:38Z</time>
      </trkpt>
      <trkpt lat="43.75322" lon="7.01771">
        <ele>949.43920898438</ele>
        <time>2012-03-27T13:01:53Z</time>
      </trkpt>
      <trkpt lat="43.75329" lon="7.01777">
        <ele>950.40063476562</ele>
        <time>2012-03-27T13:01:57Z</time>
      </trkpt>
      <trkpt lat="43.75352" lon="7.01796">
        <ele>952.32299804688</ele>
        <time>2012-03-27T13:02:11Z</time>
      </trkpt>
      <trkpt lat="43.7538" lon="7.01798">
        <ele>953.76513671875</ele>
        <time>2012-03-27T13:02:25Z</time>
      </trkpt>
      <trkpt lat="43.75412" lon="7.01792">
        <ele>955.20703125</ele>
        <time>2012-03-27T13:02:40Z</time>
      </trkpt>
      <trkpt lat="43.75446" lon="7.01803">
        <ele>956.64916992188</ele>
        <time>2012-03-27T13:02:56Z</time>
      </trkpt>
      <trkpt lat="43.75481" lon="7.01813">
        <ele>955.20703125</ele>
        <time>2012-03-27T13:03:11Z</time>
      </trkpt>
      <trkpt lat="43.75544" lon="7.01828">
        <ele>953.76513671875</ele>
        <time>2012-03-27T13:03:33Z</time>
      </trkpt>
      <trkpt lat="43.75569" lon="7.01832">
        <ele>951.84252929688</ele>
        <time>2012-03-27T13:03:39Z</time>
      </trkpt>
      <trkpt lat="43.75606" lon="7.01837">
        <ele>952.32299804688</ele>
        <time>2012-03-27T13:03:51Z</time>
      </trkpt>
      <trkpt lat="43.75631" lon="7.01845">
        <ele>953.76513671875</ele>
        <time>2012-03-27T13:04:00Z</time>
      </trkpt>
      <trkpt lat="43.75672" lon="7.01857">
        <ele>955.68774414062</ele>
        <time>2012-03-27T13:04:17Z</time>
      </trkpt>
      <trkpt lat="43.75694" lon="7.01835">
        <ele>957.61059570312</ele>
        <time>2012-03-27T13:04:30Z</time>
      </trkpt>
      <trkpt lat="43.75719" lon="7.01816">
        <ele>958.09130859375</ele>
        <time>2012-03-27T13:04:43Z</time>
      </trkpt>
      <trkpt lat="43.7573" lon="7.01764">
        <ele>960.013671875</ele>
        <time>2012-03-27T13:05:00Z</time>
      </trkpt>
      <trkpt lat="43.75745" lon="7.0173">
        <ele>962.4169921875</ele>
        <time>2012-03-27T13:05:15Z</time>
      </trkpt>
      <trkpt lat="43.7576" lon="7.01695">
        <ele>963.85888671875</ele>
        <time>2012-03-27T13:05:30Z</time>
      </trkpt>
      <trkpt lat="43.75776" lon="7.01663">
        <ele>966.26220703125</ele>
        <time>2012-03-27T13:05:45Z</time>
      </trkpt>
      <trkpt lat="43.7578" lon="7.01658">
        <ele>967.2236328125</ele>
        <time>2012-03-27T13:05:48Z</time>
      </trkpt>
      <trkpt lat="43.75782" lon="7.01645">
        <ele>967.7041015625</ele>
        <time>2012-03-27T13:05:53Z</time>
      </trkpt>
      <trkpt lat="43.75773" lon="7.01599">
        <ele>968.66552734375</ele>
        <time>2012-03-27T13:06:09Z</time>
      </trkpt>
      <trkpt lat="43.75777" lon="7.01578">
        <ele>969.14624023438</ele>
        <time>2012-03-27T13:06:21Z</time>
      </trkpt>
      <trkpt lat="43.75801" lon="7.01576">
        <ele>970.58813476562</ele>
        <time>2012-03-27T13:06:34Z</time>
      </trkpt>
      <trkpt lat="43.7581" lon="7.01578">
        <ele>969.14624023438</ele>
        <time>2012-03-27T13:06:48Z</time>
      </trkpt>
      <trkpt lat="43.7581" lon="7.01578">
        <ele>966.26220703125</ele>
        <time>2012-03-27T13:08:38Z</time>
      </trkpt>
      <trkpt lat="43.7581" lon="7.01578">
        <ele>962.89770507812</ele>
        <time>2012-03-27T13:09:56Z</time>
      </trkpt>
      <trkpt lat="43.7581" lon="7.01578">
        <ele>959.533203125</ele>
        <time>2012-03-27T13:11:18Z</time>
      </trkpt>
      <trkpt lat="43.7581" lon="7.01578">
        <ele>956.16845703125</ele>
        <time>2012-03-27T13:12:15Z</time>
      </trkpt>
      <trkpt lat="43.7581" lon="7.01578">
        <ele>956.16845703125</ele>
        <time>2012-03-27T13:13:17Z</time>
      </trkpt>
      <trkpt lat="43.75828" lon="7.01559">
        <ele>953.76513671875</ele>
        <time>2012-03-27T13:13:28Z</time>
      </trkpt>
      <trkpt lat="43.7587" lon="7.01528">
        <ele>950.40063476562</ele>
        <time>2012-03-27T13:13:38Z</time>
      </trkpt>
      <trkpt lat="43.75916" lon="7.01508">
        <ele>947.5166015625</ele>
        <time>2012-03-27T13:13:48Z</time>
      </trkpt>
      <trkpt lat="43.75978" lon="7.01489">
        <ele>944.63256835938</ele>
        <time>2012-03-27T13:14:03Z</time>
      </trkpt>
      <trkpt lat="43.76004" lon="7.01476">
        <ele>942.2294921875</ele>
        <time>2012-03-27T13:14:11Z</time>
      </trkpt>
      <trkpt lat="43.76022" lon="7.01468">
        <ele>941.74877929688</ele>
        <time>2012-03-27T13:14:16Z</time>
      </trkpt>
      <trkpt lat="43.76045" lon="7.01458">
        <ele>941.74877929688</ele>
        <time>2012-03-27T13:14:23Z</time>
      </trkpt>
      <trkpt lat="43.76061" lon="7.0146">
        <ele>940.78735351562</ele>
        <time>2012-03-27T13:14:27Z</time>
      </trkpt>
      <trkpt lat="43.76072" lon="7.01456">
        <ele>940.78735351562</ele>
        <time>2012-03-27T13:14:30Z</time>
      </trkpt>
      <trkpt lat="43.76104" lon="7.01455">
        <ele>940.78735351562</ele>
        <time>2012-03-27T13:14:38Z</time>
      </trkpt>
      <trkpt lat="43.76116" lon="7.01451">
        <ele>939.34521484375</ele>
        <time>2012-03-27T13:14:41Z</time>
      </trkpt>
      <trkpt lat="43.76134" lon="7.01446">
        <ele>940.78735351562</ele>
        <time>2012-03-27T13:14:48Z</time>
      </trkpt>
      <trkpt lat="43.76138" lon="7.01428">
        <ele>942.2294921875</ele>
        <time>2012-03-27T13:14:53Z</time>
      </trkpt>
      <trkpt lat="43.76162" lon="7.01397">
        <ele>944.15209960938</ele>
        <time>2012-03-27T13:15:08Z</time>
      </trkpt>
      <trkpt lat="43.76188" lon="7.01381">
        <ele>944.15209960938</ele>
        <time>2012-03-27T13:15:18Z</time>
      </trkpt>
      <trkpt lat="43.7619" lon="7.01377">
        <ele>943.67138671875</ele>
        <time>2012-03-27T13:15:19Z</time>
      </trkpt>
      <trkpt lat="43.7619" lon="7.01332">
        <ele>945.11328125</ele>
        <time>2012-03-27T13:15:32Z</time>
      </trkpt>
      <trkpt lat="43.76209" lon="7.01329">
        <ele>944.15209960938</ele>
        <time>2012-03-27T13:15:36Z</time>
      </trkpt>
      <trkpt lat="43.76243" lon="7.0131">
        <ele>944.15209960938</ele>
        <time>2012-03-27T13:15:47Z</time>
      </trkpt>
      <trkpt lat="43.76247" lon="7.01309">
        <ele>945.11328125</ele>
        <time>2012-03-27T13:15:49Z</time>
      </trkpt>
      <trkpt lat="43.76266" lon="7.01277">
        <ele>944.63256835938</ele>
        <time>2012-03-27T13:16:00Z</time>
      </trkpt>
      <trkpt lat="43.76271" lon="7.01268">
        <ele>944.15209960938</ele>
        <time>2012-03-27T13:16:02Z</time>
      </trkpt>
      <trkpt lat="43.76291" lon="7.01242">
        <ele>942.2294921875</ele>
        <time>2012-03-27T13:16:08Z</time>
      </trkpt>
      <trkpt lat="43.76292" lon="7.01179">
        <ele>945.59399414062</ele>
        <time>2012-03-27T13:16:21Z</time>
      </trkpt>
      <trkpt lat="43.7629" lon="7.01167">
        <ele>946.55541992188</ele>
        <time>2012-03-27T13:16:25Z</time>
      </trkpt>
      <trkpt lat="43.76301" lon="7.01131">
        <ele>947.03588867188</ele>
        <time>2012-03-27T13:16:39Z</time>
      </trkpt>
      <trkpt lat="43.76329" lon="7.01125">
        <ele>948.47778320312</ele>
        <time>2012-03-27T13:16:49Z</time>
      </trkpt>
      <trkpt lat="43.76362" lon="7.01116">
        <ele>950.40063476562</ele>
        <time>2012-03-27T13:17:04Z</time>
      </trkpt>
      <trkpt lat="43.76367" lon="7.01117">
        <ele>950.40063476562</ele>
        <time>2012-03-27T13:17:06Z</time>
      </trkpt>
      <trkpt lat="43.76377" lon="7.01128">
        <ele>951.84252929688</ele>
        <time>2012-03-27T13:17:13Z</time>
      </trkpt>
      <trkpt lat="43.76405" lon="7.01154">
        <ele>955.68774414062</ele>
        <time>2012-03-27T13:17:27Z</time>
      </trkpt>
      <trkpt lat="43.76407" lon="7.01156">
        <ele>955.68774414062</ele>
        <time>2012-03-27T13:17:28Z</time>
      </trkpt>
      <trkpt lat="43.76429" lon="7.0118">
        <ele>956.64916992188</ele>
        <time>2012-03-27T13:17:43Z</time>
      </trkpt>
      <trkpt lat="43.76463" lon="7.01204">
        <ele>957.1298828125</ele>
        <time>2012-03-27T13:18:00Z</time>
      </trkpt>
      <trkpt lat="43.76512" lon="7.01235">
        <ele>956.16845703125</ele>
        <time>2012-03-27T13:18:21Z</time>
      </trkpt>
      <trkpt lat="43.76552" lon="7.01271">
        <ele>957.61059570312</ele>
        <time>2012-03-27T13:18:40Z</time>
      </trkpt>
      <trkpt lat="43.76579" lon="7.01286">
        <ele>960.49438476562</ele>
        <time>2012-03-27T13:18:54Z</time>
      </trkpt>
      <trkpt lat="43.76594" lon="7.01323">
        <ele>960.013671875</ele>
        <time>2012-03-27T13:19:05Z</time>
      </trkpt>
      <trkpt lat="43.76621" lon="7.01339">
        <ele>962.4169921875</ele>
        <time>2012-03-27T13:19:19Z</time>
      </trkpt>
      <trkpt lat="43.76633" lon="7.01374">
        <ele>965.30102539062</ele>
        <time>2012-03-27T13:19:34Z</time>
      </trkpt>
      <trkpt lat="43.76654" lon="7.01411">
        <ele>966.74291992188</ele>
        <time>2012-03-27T13:19:49Z</time>
      </trkpt>
      <trkpt lat="43.767" lon="7.01438">
        <ele>968.66552734375</ele>
        <time>2012-03-27T13:20:08Z</time>
      </trkpt>
      <trkpt lat="43.76734" lon="7.01458">
        <ele>969.626953125</ele>
        <time>2012-03-27T13:20:22Z</time>
      </trkpt>
      <trkpt lat="43.76777" lon="7.01471">
        <ele>970.107421875</ele>
        <time>2012-03-27T13:20:36Z</time>
      </trkpt>
      <trkpt lat="43.76788" lon="7.01504">
        <ele>970.58813476562</ele>
        <time>2012-03-27T13:20:46Z</time>
      </trkpt>
      <trkpt lat="43.76776" lon="7.01533">
        <ele>967.2236328125</ele>
        <time>2012-03-27T13:20:51Z</time>
      </trkpt>
      <trkpt lat="43.76773" lon="7.01539">
        <ele>967.2236328125</ele>
        <time>2012-03-27T13:20:52Z</time>
      </trkpt>
      <trkpt lat="43.76767" lon="7.01562">
        <ele>969.14624023438</ele>
        <time>2012-03-27T13:20:58Z</time>
      </trkpt>
      <trkpt lat="43.76791" lon="7.01587">
        <ele>971.54931640625</ele>
        <time>2012-03-27T13:21:13Z</time>
      </trkpt>
      <trkpt lat="43.76827" lon="7.01608">
        <ele>974.43359375</ele>
        <time>2012-03-27T13:21:32Z</time>
      </trkpt>
      <trkpt lat="43.7685" lon="7.01641">
        <ele>976.35620117188</ele>
        <time>2012-03-27T13:21:47Z</time>
      </trkpt>
      <trkpt lat="43.76858" lon="7.01656">
        <ele>978.27880859375</ele>
        <time>2012-03-27T13:21:54Z</time>
      </trkpt>
      <trkpt lat="43.7688" lon="7.01682">
        <ele>980.68212890625</ele>
        <time>2012-03-27T13:22:09Z</time>
      </trkpt>
      <trkpt lat="43.76909" lon="7.01705">
        <ele>982.60473632812</ele>
        <time>2012-03-27T13:22:26Z</time>
      </trkpt>
      <trkpt lat="43.76929" lon="7.01724">
        <ele>983.08520507812</ele>
        <time>2012-03-27T13:22:37Z</time>
      </trkpt>
      <trkpt lat="43.76929" lon="7.0171">
        <ele>983.56591796875</ele>
        <time>2012-03-27T13:22:45Z</time>
      </trkpt>
      <trkpt lat="43.76923" lon="7.01689">
        <ele>981.64331054688</ele>
        <time>2012-03-27T13:22:50Z</time>
      </trkpt>
      <trkpt lat="43.76914" lon="7.01675">
        <ele>979.720703125</ele>
        <time>2012-03-27T13:22:53Z</time>
      </trkpt>
      <trkpt lat="43.76903" lon="7.01651">
        <ele>978.75952148438</ele>
        <time>2012-03-27T13:22:57Z</time>
      </trkpt>
      <trkpt lat="43.76899" lon="7.01623">
        <ele>978.75952148438</ele>
        <time>2012-03-27T13:23:01Z</time>
      </trkpt>
      <trkpt lat="43.76897" lon="7.01582">
        <ele>981.16284179688</ele>
        <time>2012-03-27T13:23:12Z</time>
      </trkpt>
      <trkpt lat="43.76899" lon="7.01532">
        <ele>983.08520507812</ele>
        <time>2012-03-27T13:23:29Z</time>
      </trkpt>
      <trkpt lat="43.76893" lon="7.01482">
        <ele>985.96923828125</ele>
        <time>2012-03-27T13:23:46Z</time>
      </trkpt>
      <trkpt lat="43.76895" lon="7.01434">
        <ele>988.853515625</ele>
        <time>2012-03-27T13:24:05Z</time>
      </trkpt>
      <trkpt lat="43.76907" lon="7.01407">
        <ele>991.25659179688</ele>
        <time>2012-03-27T13:24:21Z</time>
      </trkpt>
      <trkpt lat="43.76925" lon="7.01389">
        <ele>993.65991210938</ele>
        <time>2012-03-27T13:24:36Z</time>
      </trkpt>
      <trkpt lat="43.76914" lon="7.01354">
        <ele>995.10180664062</ele>
        <time>2012-03-27T13:24:50Z</time>
      </trkpt>
      <trkpt lat="43.76909" lon="7.01324">
        <ele>997.98583984375</ele>
        <time>2012-03-27T13:25:02Z</time>
      </trkpt>
      <trkpt lat="43.76901" lon="7.01296">
        <ele>1001.3503417969</ele>
        <time>2012-03-27T13:25:17Z</time>
      </trkpt>
      <trkpt lat="43.76885" lon="7.01268">
        <ele>1001.8310546875</ele>
        <time>2012-03-27T13:25:34Z</time>
      </trkpt>
      <trkpt lat="43.76878" lon="7.01246">
        <ele>1005.1958007812</ele>
        <time>2012-03-27T13:25:46Z</time>
      </trkpt>
      <trkpt lat="43.76876" lon="7.01222">
        <ele>1008.5603027344</ele>
        <time>2012-03-27T13:25:59Z</time>
      </trkpt>
      <trkpt lat="43.76869" lon="7.01184">
        <ele>1008.5603027344</ele>
        <time>2012-03-27T13:26:14Z</time>
      </trkpt>
      <trkpt lat="43.76866" lon="7.01165">
        <ele>1006.6376953125</ele>
        <time>2012-03-27T13:26:20Z</time>
      </trkpt>
      <trkpt lat="43.76861" lon="7.01141">
        <ele>1006.1569824219</ele>
        <time>2012-03-27T13:26:26Z</time>
      </trkpt>
      <trkpt lat="43.76887" lon="7.01117">
        <ele>1006.1569824219</ele>
        <time>2012-03-27T13:26:35Z</time>
      </trkpt>
      <trkpt lat="43.76889" lon="7.01119">
        <ele>1005.6765136719</ele>
        <time>2012-03-27T13:26:36Z</time>
      </trkpt>
      <trkpt lat="43.76915" lon="7.01131">
        <ele>1005.6765136719</ele>
        <time>2012-03-27T13:26:48Z</time>
      </trkpt>
      <trkpt lat="43.76944" lon="7.0113">
        <ele>1006.1569824219</ele>
        <time>2012-03-27T13:27:01Z</time>
      </trkpt>
      <trkpt lat="43.76975" lon="7.01154">
        <ele>1008.0798339844</ele>
        <time>2012-03-27T13:27:19Z</time>
      </trkpt>
      <trkpt lat="43.76979" lon="7.01185">
        <ele>1011.4443359375</ele>
        <time>2012-03-27T13:27:32Z</time>
      </trkpt>
      <trkpt lat="43.7698" lon="7.01228">
        <ele>1011.9250488281</ele>
        <time>2012-03-27T13:27:48Z</time>
      </trkpt>
      <trkpt lat="43.77003" lon="7.01242">
        <ele>1014.328125</ele>
        <time>2012-03-27T13:28:01Z</time>
      </trkpt>
      <trkpt lat="43.77032" lon="7.01271">
        <ele>1015.7702636719</ele>
        <time>2012-03-27T13:28:20Z</time>
      </trkpt>
      <trkpt lat="43.77044" lon="7.01303">
        <ele>1015.2895507812</ele>
        <time>2012-03-27T13:28:32Z</time>
      </trkpt>
      <trkpt lat="43.7707" lon="7.01328">
        <ele>1015.7702636719</ele>
        <time>2012-03-27T13:28:48Z</time>
      </trkpt>
      <trkpt lat="43.77099" lon="7.01353">
        <ele>1018.1733398438</ele>
        <time>2012-03-27T13:29:04Z</time>
      </trkpt>
      <trkpt lat="43.7713" lon="7.01382">
        <ele>1018.6540527344</ele>
        <time>2012-03-27T13:29:21Z</time>
      </trkpt>
      <trkpt lat="43.77152" lon="7.01364">
        <ele>1019.6154785156</ele>
        <time>2012-03-27T13:29:35Z</time>
      </trkpt>
      <trkpt lat="43.77155" lon="7.01355">
        <ele>1020.5769042969</ele>
        <time>2012-03-27T13:29:38Z</time>
      </trkpt>
      <trkpt lat="43.77164" lon="7.01362">
        <ele>1020.5769042969</ele>
        <time>2012-03-27T13:29:44Z</time>
      </trkpt>
      <trkpt lat="43.77183" lon="7.01386">
        <ele>1022.0187988281</ele>
        <time>2012-03-27T13:29:57Z</time>
      </trkpt>
      <trkpt lat="43.77192" lon="7.01415">
        <ele>1022.9802246094</ele>
        <time>2012-03-27T13:30:09Z</time>
      </trkpt>
      <trkpt lat="43.77217" lon="7.01454">
        <ele>1024.4221191406</ele>
        <time>2012-03-27T13:30:28Z</time>
      </trkpt>
      <trkpt lat="43.77236" lon="7.01477">
        <ele>1027.3061523438</ele>
        <time>2012-03-27T13:30:43Z</time>
      </trkpt>
      <trkpt lat="43.77237" lon="7.01478">
        <ele>1027.3061523438</ele>
        <time>2012-03-27T13:30:44Z</time>
      </trkpt>
      <trkpt lat="43.77252" lon="7.01496">
        <ele>1030.1899414062</ele>
        <time>2012-03-27T13:30:57Z</time>
      </trkpt>
      <trkpt lat="43.77269" lon="7.01534">
        <ele>1032.1125488281</ele>
        <time>2012-03-27T13:31:16Z</time>
      </trkpt>
      <trkpt lat="43.77284" lon="7.01563">
        <ele>1033.5544433594</ele>
        <time>2012-03-27T13:31:30Z</time>
      </trkpt>
      <trkpt lat="43.77265" lon="7.01602">
        <ele>1033.5544433594</ele>
        <time>2012-03-27T13:31:45Z</time>
      </trkpt>
      <trkpt lat="43.77244" lon="7.01659">
        <ele>1032.1125488281</ele>
        <time>2012-03-27T13:32:02Z</time>
      </trkpt>
      <trkpt lat="43.77224" lon="7.01682">
        <ele>1029.228515625</ele>
        <time>2012-03-27T13:32:12Z</time>
      </trkpt>
      <trkpt lat="43.77201" lon="7.01705">
        <ele>1025.8640136719</ele>
        <time>2012-03-27T13:32:20Z</time>
      </trkpt>
      <trkpt lat="43.77195" lon="7.01712">
        <ele>1023.4609375</ele>
        <time>2012-03-27T13:32:23Z</time>
      </trkpt>
      <trkpt lat="43.77193" lon="7.0172">
        <ele>1022.4995117188</ele>
        <time>2012-03-27T13:32:27Z</time>
      </trkpt>
      <trkpt lat="43.77193" lon="7.01734">
        <ele>1020.0961914062</ele>
        <time>2012-03-27T13:32:32Z</time>
      </trkpt>
      <trkpt lat="43.7719" lon="7.01742">
        <ele>1019.134765625</ele>
        <time>2012-03-27T13:32:35Z</time>
      </trkpt>
      <trkpt lat="43.77183" lon="7.01753">
        <ele>1017.2121582031</ele>
        <time>2012-03-27T13:32:39Z</time>
      </trkpt>
      <trkpt lat="43.77178" lon="7.01787">
        <ele>1013.8474121094</ele>
        <time>2012-03-27T13:32:49Z</time>
      </trkpt>
      <trkpt lat="43.7718" lon="7.01819">
        <ele>1010.4829101562</ele>
        <time>2012-03-27T13:32:55Z</time>
      </trkpt>
      <trkpt lat="43.77181" lon="7.01834">
        <ele>1009.041015625</ele>
        <time>2012-03-27T13:32:58Z</time>
      </trkpt>
      <trkpt lat="43.77178" lon="7.01846">
        <ele>1007.1184082031</ele>
        <time>2012-03-27T13:33:01Z</time>
      </trkpt>
      <trkpt lat="43.77178" lon="7.01846">
        <ele>1007.1184082031</ele>
        <time>2012-03-27T13:33:04Z</time>
      </trkpt>
      <trkpt lat="43.77136" lon="7.0194">
        <ele>1005.6765136719</ele>
        <time>2012-03-27T13:33:21Z</time>
      </trkpt>
      <trkpt lat="43.77133" lon="7.01972">
        <ele>1004.2346191406</ele>
        <time>2012-03-27T13:33:27Z</time>
      </trkpt>
      <trkpt lat="43.77129" lon="7.01995">
        <ele>1001.8310546875</ele>
        <time>2012-03-27T13:33:31Z</time>
      </trkpt>
      <trkpt lat="43.77122" lon="7.02001">
        <ele>1001.8310546875</ele>
        <time>2012-03-27T13:33:33Z</time>
      </trkpt>
      <trkpt lat="43.77081" lon="7.02042">
        <ele>1005.1958007812</ele>
        <time>2012-03-27T13:33:50Z</time>
      </trkpt>
      <trkpt lat="43.77073" lon="7.02093">
        <ele>1005.1958007812</ele>
        <time>2012-03-27T13:34:03Z</time>
      </trkpt>
      <trkpt lat="43.77076" lon="7.02126">
        <ele>1003.7536621094</ele>
        <time>2012-03-27T13:34:09Z</time>
      </trkpt>
      <trkpt lat="43.77078" lon="7.02138">
        <ele>1003.7536621094</ele>
        <time>2012-03-27T13:34:11Z</time>
      </trkpt>
      <trkpt lat="43.77069" lon="7.02168">
        <ele>1002.3115234375</ele>
        <time>2012-03-27T13:34:17Z</time>
      </trkpt>
      <trkpt lat="43.77026" lon="7.02201">
        <ele>1001.8310546875</ele>
        <time>2012-03-27T13:34:34Z</time>
      </trkpt>
      <trkpt lat="43.77023" lon="7.02212">
        <ele>1000.8696289062</ele>
        <time>2012-03-27T13:34:36Z</time>
      </trkpt>
      <trkpt lat="43.7702" lon="7.02225">
        <ele>999.90844726562</ele>
        <time>2012-03-27T13:34:38Z</time>
      </trkpt>
      <trkpt lat="43.76995" lon="7.02295">
        <ele>998.94702148438</ele>
        <time>2012-03-27T13:34:52Z</time>
      </trkpt>
      <trkpt lat="43.76976" lon="7.02325">
        <ele>1002.3115234375</ele>
        <time>2012-03-27T13:35:04Z</time>
      </trkpt>
      <trkpt lat="43.76967" lon="7.02338">
        <ele>1002.7922363281</ele>
        <time>2012-03-27T13:35:10Z</time>
      </trkpt>
      <trkpt lat="43.76955" lon="7.02394">
        <ele>1006.1569824219</ele>
        <time>2012-03-27T13:35:29Z</time>
      </trkpt>
      <trkpt lat="43.76939" lon="7.02429">
        <ele>1008.5603027344</ele>
        <time>2012-03-27T13:35:46Z</time>
      </trkpt>
      <trkpt lat="43.76925" lon="7.02449">
        <ele>1010.9636230469</ele>
        <time>2012-03-27T13:36:00Z</time>
      </trkpt>
      <trkpt lat="43.76917" lon="7.02475">
        <ele>1013.8474121094</ele>
        <time>2012-03-27T13:36:13Z</time>
      </trkpt>
      <trkpt lat="43.76916" lon="7.02513">
        <ele>1015.7702636719</ele>
        <time>2012-03-27T13:36:31Z</time>
      </trkpt>
      <trkpt lat="43.76917" lon="7.02526">
        <ele>1015.7702636719</ele>
        <time>2012-03-27T13:36:38Z</time>
      </trkpt>
      <trkpt lat="43.76915" lon="7.02533">
        <ele>1016.7314453125</ele>
        <time>2012-03-27T13:36:42Z</time>
      </trkpt>
      <trkpt lat="43.76911" lon="7.02565">
        <ele>1019.6154785156</ele>
        <time>2012-03-27T13:36:58Z</time>
      </trkpt>
      <trkpt lat="43.76907" lon="7.02603">
        <ele>1022.0187988281</ele>
        <time>2012-03-27T13:37:16Z</time>
      </trkpt>
      <trkpt lat="43.76904" lon="7.02614">
        <ele>1022.4995117188</ele>
        <time>2012-03-27T13:37:22Z</time>
      </trkpt>
      <trkpt lat="43.76889" lon="7.02646">
        <ele>1025.3833007812</ele>
        <time>2012-03-27T13:37:41Z</time>
      </trkpt>
      <trkpt lat="43.76872" lon="7.02684">
        <ele>1025.3833007812</ele>
        <time>2012-03-27T13:38:00Z</time>
      </trkpt>
      <trkpt lat="43.76869" lon="7.02692">
        <ele>1025.3833007812</ele>
        <time>2012-03-27T13:38:12Z</time>
      </trkpt>
      <trkpt lat="43.76856" lon="7.02719">
        <ele>1023.94140625</ele>
        <time>2012-03-27T13:38:22Z</time>
      </trkpt>
      <trkpt lat="43.76851" lon="7.02729">
        <ele>1023.4609375</ele>
        <time>2012-03-27T13:38:24Z</time>
      </trkpt>
      <trkpt lat="43.76845" lon="7.0274">
        <ele>1022.0187988281</ele>
        <time>2012-03-27T13:38:26Z</time>
      </trkpt>
      <trkpt lat="43.76834" lon="7.02755">
        <ele>1020.5769042969</ele>
        <time>2012-03-27T13:38:29Z</time>
      </trkpt>
      <trkpt lat="43.76821" lon="7.02788">
        <ele>1018.1733398438</ele>
        <time>2012-03-27T13:38:34Z</time>
      </trkpt>
      <trkpt lat="43.76818" lon="7.02803">
        <ele>1016.7314453125</ele>
        <time>2012-03-27T13:38:36Z</time>
      </trkpt>
      <trkpt lat="43.76804" lon="7.02845">
        <ele>1013.3669433594</ele>
        <time>2012-03-27T13:38:43Z</time>
      </trkpt>
      <trkpt lat="43.76775" lon="7.02923">
        <ele>1009.5217285156</ele>
        <time>2012-03-27T13:38:53Z</time>
      </trkpt>
      <trkpt lat="43.76772" lon="7.02931">
        <ele>1008.5603027344</ele>
        <time>2012-03-27T13:38:54Z</time>
      </trkpt>
      <trkpt lat="43.76765" lon="7.02967">
        <ele>1007.5991210938</ele>
        <time>2012-03-27T13:38:58Z</time>
      </trkpt>
      <trkpt lat="43.7675" lon="7.03027">
        <ele>1003.7536621094</ele>
        <time>2012-03-27T13:39:04Z</time>
      </trkpt>
      <trkpt lat="43.76712" lon="7.03105">
        <ele>1002.3115234375</ele>
        <time>2012-03-27T13:39:14Z</time>
      </trkpt>
      <trkpt lat="43.76707" lon="7.0312">
        <ele>1001.3503417969</ele>
        <time>2012-03-27T13:39:16Z</time>
      </trkpt>
      <trkpt lat="43.767" lon="7.03135">
        <ele>1000.3891601562</ele>
        <time>2012-03-27T13:39:18Z</time>
      </trkpt>
      <trkpt lat="43.76677" lon="7.03185">
        <ele>997.98583984375</ele>
        <time>2012-03-27T13:39:25Z</time>
      </trkpt>
      <trkpt lat="43.76665" lon="7.03215">
        <ele>993.17919921875</ele>
        <time>2012-03-27T13:39:28Z</time>
      </trkpt>
      <trkpt lat="43.76662" lon="7.03225">
        <ele>992.21801757812</ele>
        <time>2012-03-27T13:39:29Z</time>
      </trkpt>
      <trkpt lat="43.76647" lon="7.03258">
        <ele>990.29541015625</ele>
        <time>2012-03-27T13:39:33Z</time>
      </trkpt>
      <trkpt lat="43.76637" lon="7.033">
        <ele>988.853515625</ele>
        <time>2012-03-27T13:39:38Z</time>
      </trkpt>
      <trkpt lat="43.76632" lon="7.03318">
        <ele>987.4111328125</ele>
        <time>2012-03-27T13:39:40Z</time>
      </trkpt>
      <trkpt lat="43.7662" lon="7.0334">
        <ele>987.4111328125</ele>
        <time>2012-03-27T13:39:43Z</time>
      </trkpt>
      <trkpt lat="43.7657" lon="7.03436">
        <ele>983.56591796875</ele>
        <time>2012-03-27T13:39:58Z</time>
      </trkpt>
      <trkpt lat="43.76567" lon="7.03443">
        <ele>983.56591796875</ele>
        <time>2012-03-27T13:39:59Z</time>
      </trkpt>
      <trkpt lat="43.76555" lon="7.03473">
        <ele>981.64331054688</ele>
        <time>2012-03-27T13:40:03Z</time>
      </trkpt>
      <trkpt lat="43.76547" lon="7.03531">
        <ele>979.23999023438</ele>
        <time>2012-03-27T13:40:10Z</time>
      </trkpt>
      <trkpt lat="43.76541" lon="7.03545">
        <ele>979.720703125</ele>
        <time>2012-03-27T13:40:12Z</time>
      </trkpt>
      <trkpt lat="43.76501" lon="7.03632">
        <ele>977.79809570312</ele>
        <time>2012-03-27T13:40:27Z</time>
      </trkpt>
      <trkpt lat="43.76501" lon="7.03656">
        <ele>976.8369140625</ele>
        <time>2012-03-27T13:40:31Z</time>
      </trkpt>
      <trkpt lat="43.76504" lon="7.03667">
        <ele>976.8369140625</ele>
        <time>2012-03-27T13:40:33Z</time>
      </trkpt>
      <trkpt lat="43.76501" lon="7.03694">
        <ele>975.87548828125</ele>
        <time>2012-03-27T13:40:37Z</time>
      </trkpt>
      <trkpt lat="43.76495" lon="7.03713">
        <ele>973.95288085938</ele>
        <time>2012-03-27T13:40:40Z</time>
      </trkpt>
      <trkpt lat="43.76492" lon="7.03727">
        <ele>973.47241210938</ele>
        <time>2012-03-27T13:40:42Z</time>
      </trkpt>
      <trkpt lat="43.7649" lon="7.03758">
        <ele>972.0302734375</ele>
        <time>2012-03-27T13:40:46Z</time>
      </trkpt>
      <trkpt lat="43.76478" lon="7.03809">
        <ele>970.58813476562</ele>
        <time>2012-03-27T13:40:52Z</time>
      </trkpt>
      <trkpt lat="43.7647" lon="7.03823">
        <ele>971.06884765625</ele>
        <time>2012-03-27T13:40:54Z</time>
      </trkpt>
      <trkpt lat="43.76442" lon="7.03845">
        <ele>971.06884765625</ele>
        <time>2012-03-27T13:41:00Z</time>
      </trkpt>
      <trkpt lat="43.76409" lon="7.03852">
        <ele>971.06884765625</ele>
        <time>2012-03-27T13:41:07Z</time>
      </trkpt>
      <trkpt lat="43.76383" lon="7.03865">
        <ele>969.626953125</ele>
        <time>2012-03-27T13:41:13Z</time>
      </trkpt>
      <trkpt lat="43.76372" lon="7.03875">
        <ele>970.107421875</ele>
        <time>2012-03-27T13:41:16Z</time>
      </trkpt>
      <trkpt lat="43.76365" lon="7.03896">
        <ele>969.626953125</ele>
        <time>2012-03-27T13:41:20Z</time>
      </trkpt>
      <trkpt lat="43.76363" lon="7.03908">
        <ele>970.107421875</ele>
        <time>2012-03-27T13:41:22Z</time>
      </trkpt>
      <trkpt lat="43.76348" lon="7.03936">
        <ele>969.14624023438</ele>
        <time>2012-03-27T13:41:28Z</time>
      </trkpt>
      <trkpt lat="43.76288" lon="7.04002">
        <ele>969.626953125</ele>
        <time>2012-03-27T13:41:47Z</time>
      </trkpt>
      <trkpt lat="43.76238" lon="7.04032">
        <ele>972.0302734375</ele>
        <time>2012-03-27T13:42:03Z</time>
      </trkpt>
      <trkpt lat="43.76199" lon="7.04072">
        <ele>972.51098632812</ele>
        <time>2012-03-27T13:42:16Z</time>
      </trkpt>
      <trkpt lat="43.76195" lon="7.04076">
        <ele>972.51098632812</ele>
        <time>2012-03-27T13:42:17Z</time>
      </trkpt>
      <trkpt lat="43.76133" lon="7.04153">
        <ele>972.0302734375</ele>
        <time>2012-03-27T13:42:37Z</time>
      </trkpt>
      <trkpt lat="43.7607" lon="7.04217">
        <ele>972.0302734375</ele>
        <time>2012-03-27T13:42:55Z</time>
      </trkpt>
      <trkpt lat="43.76067" lon="7.0422">
        <ele>972.51098632812</ele>
        <time>2012-03-27T13:42:56Z</time>
      </trkpt>
      <trkpt lat="43.76012" lon="7.04287">
        <ele>973.95288085938</ele>
        <time>2012-03-27T13:43:14Z</time>
      </trkpt>
      <trkpt lat="43.75977" lon="7.04333">
        <ele>975.39477539062</ele>
        <time>2012-03-27T13:43:26Z</time>
      </trkpt>
      <trkpt lat="43.75962" lon="7.04345">
        <ele>975.87548828125</ele>
        <time>2012-03-27T13:43:30Z</time>
      </trkpt>
      <trkpt lat="43.75884" lon="7.04369">
        <ele>976.35620117188</ele>
        <time>2012-03-27T13:43:49Z</time>
      </trkpt>
      <trkpt lat="43.75821" lon="7.04422">
        <ele>975.87548828125</ele>
        <time>2012-03-27T13:44:05Z</time>
      </trkpt>
      <trkpt lat="43.75817" lon="7.04426">
        <ele>975.87548828125</ele>
        <time>2012-03-27T13:44:06Z</time>
      </trkpt>
      <trkpt lat="43.7576" lon="7.04507">
        <ele>976.8369140625</ele>
        <time>2012-03-27T13:44:24Z</time>
      </trkpt>
      <trkpt lat="43.75748" lon="7.04563">
        <ele>977.79809570312</ele>
        <time>2012-03-27T13:44:36Z</time>
      </trkpt>
      <trkpt lat="43.75751" lon="7.04574">
        <ele>977.31762695312</ele>
        <time>2012-03-27T13:44:46Z</time>
      </trkpt>
      <trkpt lat="43.75751" lon="7.04574">
        <ele>976.35620117188</ele>
        <time>2012-03-27T13:44:48Z</time>
      </trkpt>
    </trkseg>
  </trk>
</gpx>